Observation data for Coyanosa on 01/12/2018      Previous  Date  Next       Current Mesonet Observations  Soil Data  Daily Summary Page  Observations in Plain Language
KCO1 120600Z 19005KT M01/M03 A3031 RMK A01 T10111028  RH  088%=      5-min Rain = 0
KCO1 120601Z 19005KT M01/M03 A3031 RMK A01 T10101027  RH  088%=      5-min Rain = 0
KCO1 120602Z 20005KT M01/M03 A3031 RMK A01 T10091027  RH  088%=      5-min Rain = 0
KCO1 120603Z 19006KT M01/M03 A3031 RMK A01 T10091027  RH  087%=      5-min Rain = 0
KCO1 120604Z 18007KT M01/M03 A3031 RMK A01 T10081028  RH  087%=      5-min Rain = 0
KCO1 120605Z 18007KT M01/M03 A3031 RMK A01 T10091029  RH  086%=      5-min Rain = 0
KCO1 120606Z 18007KT M01/M03 A3031 RMK A01 T10091030  RH  086%=      5-min Rain = 0
KCO1 120607Z 18007KT M01/M03 A3031 RMK A01 T10091030  RH  086%=      5-min Rain = 0
KCO1 120608Z 18006KT M01/M03 A3031 RMK A01 T10081029  RH  086%=      5-min Rain = 0
KCO1 120609Z 18006KT M01/M03 A3031 RMK A01 T10081029  RH  086%=      5-min Rain = 0
KCO1 120610Z 18006KT M01/M03 A3031 RMK A01 T10081029  RH  086%=      5-min Rain = 0
KCO1 120611Z 18006KT M01/M03 A3031 RMK A01 T10081029  RH  085%=      5-min Rain = 0
KCO1 120612Z 18006KT M01/M03 A303 RMK A01 T10071029  RH  085%=      5-min Rain = 0
KCO1 120613Z 18006KT M01/M03 A303 RMK A01 T10081029  RH  085%=      5-min Rain = 0
KCO1 120614Z 18006KT M01/M03 A303 RMK A01 T10071028  RH  086%=      5-min Rain = 0
KCO1 120615Z 18006KT M01/M03 A303 RMK A01 T10071028  RH  086%=      5-min Rain = 0
KCO1 120616Z 18006KT M01/M03 A303 RMK A01 T10061027  RH  086%=      5-min Rain = 0
KCO1 120617Z 18006KT M01/M03 A303 RMK A01 T10061027  RH  086%=      5-min Rain = 0
KCO1 120618Z 18006KT M01/M03 A303 RMK A01 T10051027  RH  085%=      5-min Rain = 0
KCO1 120619Z 18005KT M01/M03 A303 RMK A01 T10051027  RH  085%=      5-min Rain = 0
KCO1 120620Z 18006KT M01/M03 A303 RMK A01 T10051027  RH  085%=      5-min Rain = 0
KCO1 120621Z 18005KT M01/M03 A303 RMK A01 T10061028  RH  085%=      5-min Rain = 0
KCO1 120622Z 17005KT M01/M03 A303 RMK A01 T10061028  RH  085%=      5-min Rain = 0
KCO1 120623Z 18005KT M01/M03 A303 RMK A01 T10061028  RH  085%=      5-min Rain = 0
KCO1 120624Z 18005KT M01/M03 A303 RMK A01 T10071029  RH  085%=      5-min Rain = 0
KCO1 120625Z 17005KT M01/M03 A303 RMK A01 T10071029  RH  085%=      5-min Rain = 0
KCO1 120626Z 17004KT M01/M03 A303 RMK A01 T10081029  RH  086%=      5-min Rain = 0
KCO1 120627Z 17004KT M01/M03 A303 RMK A01 T10081029  RH  086%=      5-min Rain = 0
KCO1 120628Z 17004KT M01/M03 A303 RMK A01 T10091029  RH  086%=      5-min Rain = 0
KCO1 120629Z 18004KT M01/M03 A303 RMK A01 T10091029  RH  086%=      5-min Rain = 0
KCO1 120630Z 18005KT M01/M03 A303 RMK A01 T10091029  RH  086%=      5-min Rain = 0
KCO1 120631Z 18004KT M01/M03 A303 RMK A01 T10091028  RH  087%=      5-min Rain = 0
KCO1 120632Z 18004KT M01/M03 A303 RMK A01 T10091028  RH  087%=      5-min Rain = 0
KCO1 120633Z 18004KT M01/M03 A303 RMK A01 T10091028  RH  087%=      5-min Rain = 0
KCO1 120634Z 19004KT M01/M03 A303 RMK A01 T10091028  RH  087%=      5-min Rain = 0
KCO1 120635Z 18004KT M01/M03 A303 RMK A01 T10091028  RH  087%=      5-min Rain = 0
KCO1 120636Z 18005KT M01/M03 A303 RMK A01 T10091028  RH  087%=      5-min Rain = 0
KCO1 120637Z 18005KT M01/M03 A303 RMK A01 T10091028  RH  087%=      5-min Rain = 0
KCO1 120638Z 18005KT M01/M03 A303 RMK A01 T10101029  RH  087%=      5-min Rain = 0
KCO1 120639Z 18005KT M01/M03 A303 RMK A01 T10111030  RH  087%=      5-min Rain = 0
KCO1 120640Z 19005KT M01/M03 A303 RMK A01 T10111030  RH  087%=      5-min Rain = 0
KCO1 120641Z 19006KT M01/M03 A303 RMK A01 T10121030  RH  088%=      5-min Rain = 0
KCO1 120642Z 19006KT M01/M03 A303 RMK A01 T10111028  RH  088%=      5-min Rain = 0
KCO1 120643Z 18007KT M01/M03 A303 RMK A01 T10101027  RH  088%=      5-min Rain = 0
KCO1 120644Z 19007KT M01/M03 A303 RMK A01 T10091025  RH  089%=      5-min Rain = 0
KCO1 120645Z 19006KT M01/M02 A303 RMK A01 T10081024  RH  089%=      5-min Rain = 0
KCO1 120646Z 20005KT M01/M02 A303 RMK A01 T10081024  RH  089%=      5-min Rain = 0
KCO1 120647Z 21004KT M01/M02 A303 RMK A01 T10071024  RH  088%=      5-min Rain = 0
KCO1 120648Z 21003KT M01/M02 A303 RMK A01 T10061024  RH  088%=      5-min Rain = 0
KCO1 120649Z 20004KT M01/M03 A303 RMK A01 T10061025  RH  087%=      5-min Rain = 0
KCO1 120650Z 20004KT M01/M03 A303 RMK A01 T10071026  RH  087%=      5-min Rain = 0
KCO1 120651Z 20004KT M01/M03 A303 RMK A01 T10081028  RH  086%=      5-min Rain = 0
KCO1 120652Z 20003KT M01/M03 A303 RMK A01 T10081028  RH  086%=      5-min Rain = 0
KCO1 120653Z 19003KT M01/M03 A303 RMK A01 T10091029  RH  086%=      5-min Rain = 0
KCO1 120654Z 19004KT M01/M03 A303 RMK A01 T10091029  RH  087%=      5-min Rain = 0
KCO1 120655Z 18004KT M01/M03 A303 RMK A01 T10101030  RH  087%=      5-min Rain = 0
KCO1 120656Z 18004KT M01/M03 A303 RMK A01 T10111031  RH  087%=      5-min Rain = 0
KCO1 120657Z 18004KT M01/M03 A303 RMK A01 T10121032  RH  087%=      5-min Rain = 0
KCO1 120658Z 18004KT M01/M03 A303 RMK A01 T10131033  RH  087%=      5-min Rain = 0
KCO1 120659Z 18004KT M01/M03 A303 RMK A01 T10141034  RH  087%=      5-min Rain = 0
KCO1 120700Z 17005KT M02/M03 A303 RMK A01 T10151034  RH  087%=      5-min Rain = 0
KCO1 120701Z 17005KT M02/M04 A303 RMK A01 T10171035  RH  087%=      5-min Rain = 0
KCO1 120702Z 18004KT M02/M04 A3029 RMK A01 T10171035  RH  088%=      5-min Rain = 0
KCO1 120703Z 18004KT M02/M04 A3029 RMK A01 T10171035  RH  088%=      5-min Rain = 0
KCO1 120704Z 18005KT M02/M03 A3029 RMK A01 T10181034  RH  088%=      5-min Rain = 0
KCO1 120705Z 18005KT M02/M03 A3029 RMK A01 T10181034  RH  089%=      5-min Rain = 0
KCO1 120706Z 18005KT M02/M03 A3029 RMK A01 T10171032  RH  089%=      5-min Rain = 0
KCO1 120707Z 17005KT M02/M03 A3029 RMK A01 T10171031  RH  090%=      5-min Rain = 0
KCO1 120708Z 17004KT M02/M03 A3029 RMK A01 T10161030  RH  090%=      5-min Rain = 0
KCO1 120709Z 17005KT M02/M03 A3029 RMK A01 T10161031  RH  090%=      5-min Rain = 0
KCO1 120710Z 17006KT M02/M03 A3029 RMK A01 T10171032  RH  090%=      5-min Rain = 0
KCO1 120711Z 17005KT M02/M03 A3029 RMK A01 T10181033  RH  089%=      5-min Rain = 0
KCO1 120712Z 17005KT M02/M03 A3029 RMK A01 T10181033  RH  090%=      5-min Rain = 0
KCO1 120713Z 17006KT M02/M03 A3029 RMK A01 T10171031  RH  090%=      5-min Rain = 0
KCO1 120714Z 17005KT M02/M03 A3029 RMK A01 T10171031  RH  090%=      5-min Rain = 0
KCO1 120715Z 17005KT M02/M03 A3029 RMK A01 T10171031  RH  090%=      5-min Rain = 0
KCO1 120716Z 18005KT M02/M03 A3029 RMK A01 T10181032  RH  090%=      5-min Rain = 0
KCO1 120717Z 18005KT M02/M03 A3029 RMK A01 T10181032  RH  090%=      5-min Rain = 0
KCO1 120718Z 18005KT M02/M03 A3029 RMK A01 T10191033  RH  090%=      5-min Rain = 0
KCO1 120719Z 18005KT M02/M03 A3029 RMK A01 T10191032  RH  091%=      5-min Rain = 0
KCO1 120720Z 19006KT M02/M03 A3029 RMK A01 T10171029  RH  091%=      5-min Rain = 0
KCO1 120721Z 19006KT M02/M03 A3029 RMK A01 T10151026  RH  092%=      5-min Rain = 0
KCO1 120722Z 19007KT M01/M03 A3029 RMK A01 T10131025  RH  092%=      5-min Rain = 0
KCO1 120723Z 19007KT M01/M02 A3029 RMK A01 T10121023  RH  092%=      5-min Rain = 0
KCO1 120724Z 18007KT M01/M02 A3029 RMK A01 T10101022  RH  092%=      5-min Rain = 0
KCO1 120725Z 18007KT M01/M02 A3029 RMK A01 T10091021  RH  092%=      5-min Rain = 0
KCO1 120726Z 18007KT M01/M02 A3029 RMK A01 T10081021  RH  091%=      5-min Rain = 0
KCO1 120727Z 18007KT M01/M02 A3029 RMK A01 T10071021  RH  090%=      5-min Rain = 0
KCO1 120728Z 18007KT M01/M02 A3029 RMK A01 T10071022  RH  090%=      5-min Rain = 0
KCO1 120729Z 18007KT M01/M02 A3029 RMK A01 T10081023  RH  089%=      5-min Rain = 0
KCO1 120730Z 18007KT M01/M02 A3029 RMK A01 T10081024  RH  089%=      5-min Rain = 0
KCO1 120731Z 18007KT M01/M03 A3029 RMK A01 T10091026  RH  088%=      5-min Rain = 0
KCO1 120732Z 18007KT M01/M03 A3029 RMK A01 T10101027  RH  088%=      5-min Rain = 0
KCO1 120733Z 19007KT M01/M03 A3029 RMK A01 T10111028  RH  088%=      5-min Rain = 0
KCO1 120734Z 19007KT M01/M03 A3029 RMK A01 T10111028  RH  088%=      5-min Rain = 0
KCO1 120735Z 19007KT M01/M03 A3029 RMK A01 T10121029  RH  088%=      5-min Rain = 0
KCO1 120736Z 20006KT M01/M03 A3029 RMK A01 T10121029  RH  089%=      5-min Rain = 0
KCO1 120737Z 20005KT M01/M03 A3029 RMK A01 T10131029  RH  089%=      5-min Rain = 0
KCO1 120738Z 20005KT M01/M03 A3029 RMK A01 T10131028  RH  089%=      5-min Rain = 0
KCO1 120739Z 20005KT M01/M03 A3029 RMK A01 T10121028  RH  089%=      5-min Rain = 0
KCO1 120740Z 21005KT M01/M03 A3029 RMK A01 T10131029  RH  089%=      5-min Rain = 0
KCO1 120741Z 21005KT M01/M03 A3029 RMK A01 T10131028  RH  089%=      5-min Rain = 0
KCO1 120742Z 20005KT M01/M03 A3029 RMK A01 T10131028  RH  089%=      5-min Rain = 0
KCO1 120743Z 20007KT M01/M03 A3029 RMK A01 T10111027  RH  089%=      5-min Rain = 0
KCO1 120744Z 20007KT M01/M03 A3029 RMK A01 T10111026  RH  089%=      5-min Rain = 0
KCO1 120745Z 20007KT M01/M03 A3029 RMK A01 T10101025  RH  089%=      5-min Rain = 0
KCO1 120746Z 20007KT M01/M03 A3029 RMK A01 T10091026  RH  089%=      5-min Rain = 0
KCO1 120747Z 20007KT M01/M03 A3029 RMK A01 T10091026  RH  088%=      5-min Rain = 0
KCO1 120748Z 20007KT M01/M03 A3029 RMK A01 T10091027  RH  088%=      5-min Rain = 0
KCO1 120749Z 20007KT M01/M03 A3029 RMK A01 T10101028  RH  088%=      5-min Rain = 0
KCO1 120750Z 20007KT M01/M03 A3029 RMK A01 T10101028  RH  087%=      5-min Rain = 0
KCO1 120751Z 19006KT M01/M03 A3029 RMK A01 T10111029  RH  087%=      5-min Rain = 0
KCO1 120752Z 19007KT M01/M03 A3029 RMK A01 T10121030  RH  088%=      5-min Rain = 0
KCO1 120753Z 19007KT M01/M03 A3028 RMK A01 T10121030  RH  088%=      5-min Rain = 0
KCO1 120754Z 19007KT M01/M03 A3028 RMK A01 T10121030  RH  088%=      5-min Rain = 0
KCO1 120755Z 19006KT M01/M03 A3029 RMK A01 T10131030  RH  088%=      5-min Rain = 0
KCO1 120756Z 19006KT M01/M03 A3029 RMK A01 T10131030  RH  088%=      5-min Rain = 0
KCO1 120757Z 19006KT M01/M03 A3029 RMK A01 T10131029  RH  089%=      5-min Rain = 0
KCO1 120758Z 19006KT M01/M03 A3028 RMK A01 T10131029  RH  089%=      5-min Rain = 0
KCO1 120759Z 19006KT M01/M03 A3028 RMK A01 T10131030  RH  089%=      5-min Rain = 0
KCO1 120800Z 19005KT M01/M03 A3028 RMK A01 T10141031  RH  088%=      5-min Rain = 0
KCO1 120801Z 19006KT M02/M03 A3028 RMK A01 T10151031  RH  088%=      5-min Rain = 0
KCO1 120802Z 19005KT M02/M03 A3028 RMK A01 T10151032  RH  089%=      5-min Rain = 0
KCO1 120803Z 19005KT M02/M03 A3028 RMK A01 T10161032  RH  089%=      5-min Rain = 0
KCO1 120804Z 19005KT M02/M03 A3028 RMK A01 T10171033  RH  089%=      5-min Rain = 0
KCO1 120805Z 19005KT M02/M03 A3028 RMK A01 T10171033  RH  089%=      5-min Rain = 0
KCO1 120806Z 19005KT M02/M03 A3028 RMK A01 T10171033  RH  089%=      5-min Rain = 0
KCO1 120807Z 19005KT M02/M03 A3028 RMK A01 T10181033  RH  089%=      5-min Rain = 0
KCO1 120808Z 18005KT M02/M03 A3028 RMK A01 T10181033  RH  089%=      5-min Rain = 0
KCO1 120809Z 18005KT M02/M03 A3028 RMK A01 T10171033  RH  089%=      5-min Rain = 0
KCO1 120810Z 17005KT M02/M03 A3028 RMK A01 T10181033  RH  089%=      5-min Rain = 0
KCO1 120811Z 17005KT M02/M03 A3028 RMK A01 T10181033  RH  090%=      5-min Rain = 0
KCO1 120812Z 17005KT M02/M03 A3028 RMK A01 T10181033  RH  090%=      5-min Rain = 0
KCO1 120813Z 17005KT M02/M03 A3029 RMK A01 T10191034  RH  090%=      5-min Rain = 0
KCO1 120814Z 17004KT M02/M03 A3029 RMK A01 T10191034  RH  090%=      5-min Rain = 0
KCO1 120815Z 05003KT M02/M03 A3029 RMK A01 T10201034  RH  090%=      5-min Rain = 0
KCO1 120816Z 03005KT M02/M03 A3029 RMK A01 T10201034  RH  090%=      5-min Rain = 0
KCO1 120817Z 04004KT M02/M03 A3029 RMK A01 T10191032  RH  091%=      5-min Rain = 0
KCO1 120818Z 08002KT M02/M03 A3029 RMK A01 T10181030  RH  092%=      5-min Rain = 0
KCO1 120819Z 16002KT M02/M03 A3029 RMK A01 T10171028  RH  092%=      5-min Rain = 0
KCO1 120820Z 15003KT M01/M03 A3029 RMK A01 T10141025  RH  093%=      5-min Rain = 0
KCO1 120821Z 08003KT M01/M02 A3029 RMK A01 T10121022  RH  093%=      5-min Rain = 0
KCO1 120822Z 05003KT M01/M02 A3029 RMK A01 T10101021  RH  092%=      5-min Rain = 0
KCO1 120823Z 04003KT M01/M02 A3029 RMK A01 T10091021  RH  092%=      5-min Rain = 0
KCO1 120824Z 02004KT M01/M02 A3029 RMK A01 T10101023  RH  091%=      5-min Rain = 0
KCO1 120825Z 03003KT M01/M03 A3029 RMK A01 T10111026  RH  090%=      5-min Rain = 0
KCO1 120826Z 06001KT M01/M03 A3029 RMK A01 T10131029  RH  089%=      5-min Rain = 0
KCO1 120827Z 15002KT M01/M03 A3029 RMK A01 T10141030  RH  089%=      5-min Rain = 0
KCO1 120828Z 19002KT M01/M03 A3029 RMK A01 T10111026  RH  090%=      5-min Rain = 0
KCO1 120829Z 04001KT M01/M02 A3029 RMK A01 T10091024  RH  090%=      5-min Rain = 0
KCO1 120830Z 03002KT M01/M03 A3029 RMK A01 T10101027  RH  088%=      5-min Rain = 0
KCO1 120831Z 03003KT M01/M03 A3029 RMK A01 T10121030  RH  088%=      5-min Rain = 0
KCO1 120832Z 02004KT M01/M03 A3029 RMK A01 T10141033  RH  087%=      5-min Rain = 0
KCO1 120833Z 03003KT M02/M03 A3029 RMK A01 T10161034  RH  087%=      5-min Rain = 0
KCO1 120834Z 03002KT M02/M04 A3029 RMK A01 T10171035  RH  088%=      5-min Rain = 0
KCO1 120835Z 04002KT M02/M04 A3029 RMK A01 T10181035  RH  088%=      5-min Rain = 0
KCO1 120836Z 04001KT M02/M04 A3029 RMK A01 T10191035  RH  089%=      5-min Rain = 0
KCO1 120837Z 04002KT M02/M04 A3029 RMK A01 T10191035  RH  089%=      5-min Rain = 0
KCO1 120838Z 04003KT M02/M04 A3029 RMK A01 T10201035  RH  089%=      5-min Rain = 0
KCO1 120839Z 05004KT M02/M04 A3029 RMK A01 T10201035  RH  089%=      5-min Rain = 0
KCO1 120840Z 06003KT M02/M04 A3029 RMK A01 T10211036  RH  090%=      5-min Rain = 0
KCO1 120841Z 08003KT M02/M04 A3028 RMK A01 T10221036  RH  090%=      5-min Rain = 0
KCO1 120842Z 08003KT M02/M04 A3028 RMK A01 T10231037  RH  090%=      5-min Rain = 0
KCO1 120843Z 07003KT M02/M04 A3028 RMK A01 T10231037  RH  090%=      5-min Rain = 0
KCO1 120844Z 05004KT M02/M04 A3028 RMK A01 T10241037  RH  090%=      5-min Rain = 0
KCO1 120845Z 05004KT M03/M04 A3028 RMK A01 T10251038  RH  091%=      5-min Rain = 0
KCO1 120846Z 07004KT M03/M04 A3028 RMK A01 T10261039  RH  091%=      5-min Rain = 0
KCO1 120847Z 09004KT M03/M04 A3028 RMK A01 T10261038  RH  091%=      5-min Rain = 0
KCO1 120848Z 10005KT M03/M04 A3028 RMK A01 T10261038  RH  091%=      5-min Rain = 0
KCO1 120849Z 09006KT M03/M04 A3028 RMK A01 T10251037  RH  092%=      5-min Rain = 0
KCO1 120850Z 09005KT M03/M04 A3028 RMK A01 T10251036  RH  092%=      5-min Rain = 0
KCO1 120851Z 09005KT M02/M04 A3028 RMK A01 T10241035  RH  092%=      5-min Rain = 0
KCO1 120852Z 10004KT M02/M03 A3028 RMK A01 T10241034  RH  092%=      5-min Rain = 0
KCO1 120853Z 09004KT M02/M03 A3028 RMK A01 T10231034  RH  092%=      5-min Rain = 0
KCO1 120854Z 09005KT M02/M03 A3028 RMK A01 T10221033  RH  092%=      5-min Rain = 0
KCO1 120855Z 10005KT M02/M03 A3028 RMK A01 T10221033  RH  092%=      5-min Rain = 0
KCO1 120856Z 12005KT M02/M03 A3028 RMK A01 T10221033  RH  092%=      5-min Rain = 0
KCO1 120857Z 13005KT M02/M03 A3028 RMK A01 T10221033  RH  092%=      5-min Rain = 0
KCO1 120858Z 13005KT M02/M03 A3028 RMK A01 T10221034  RH  092%=      5-min Rain = 0
KCO1 120859Z 13005KT M02/M03 A3028 RMK A01 T10221034  RH  092%=      5-min Rain = 0
KCO1 120900Z 13004KT M02/M04 A3028 RMK A01 T10221035  RH  091%=      5-min Rain = 0
KCO1 120901Z 13005KT M02/M04 A3028 RMK A01 T10231036  RH  091%=      5-min Rain = 0
KCO1 120902Z 13005KT M02/M04 A3028 RMK A01 T10241036  RH  091%=      5-min Rain = 0
KCO1 120903Z 14005KT M02/M04 A3028 RMK A01 T10241037  RH  091%=      5-min Rain = 0
KCO1 120904Z 13004KT M02/M04 A3028 RMK A01 T10241036  RH  091%=      5-min Rain = 0
KCO1 120905Z 13004KT M02/M04 A3028 RMK A01 T10241036  RH  092%=      5-min Rain = 0
KCO1 120906Z 13004KT M02/M04 A3028 RMK A01 T10231035  RH  092%=      5-min Rain = 0
KCO1 120907Z 12004KT M02/M03 A3028 RMK A01 T10221034  RH  092%=      5-min Rain = 0
KCO1 120908Z 12004KT M02/M03 A3028 RMK A01 T10211032  RH  092%=      5-min Rain = 0
KCO1 120909Z 12004KT M02/M03 A3028 RMK A01 T10211031  RH  092%=      5-min Rain = 0
KCO1 120910Z 13004KT M02/M03 A3028 RMK A01 T10201030  RH  093%=      5-min Rain = 0
KCO1 120911Z 14004KT M02/M03 A3028 RMK A01 T10191030  RH  093%=      5-min Rain = 0
KCO1 120912Z 15004KT M02/M03 A3028 RMK A01 T10191029  RH  093%=      5-min Rain = 0
KCO1 120913Z 14005KT M02/M03 A3028 RMK A01 T10191030  RH  092%=      5-min Rain = 0
KCO1 120914Z 14005KT M02/M03 A3028 RMK A01 T10191031  RH  092%=      5-min Rain = 0
KCO1 120915Z 13005KT M02/M03 A3028 RMK A01 T10201032  RH  091%=      5-min Rain = 0
KCO1 120916Z 13005KT M02/M03 A3028 RMK A01 T10211034  RH  091%=      5-min Rain = 0
KCO1 120917Z 13005KT M02/M03 A3028 RMK A01 T10211034  RH  091%=      5-min Rain = 0
KCO1 120918Z 13005KT M02/M03 A3028 RMK A01 T10211034  RH  091%=      5-min Rain = 0
KCO1 120919Z 13005KT M02/M03 A3028 RMK A01 T10211033  RH  091%=      5-min Rain = 0
KCO1 120920Z 12005KT M02/M03 A3028 RMK A01 T10211033  RH  091%=      5-min Rain = 0
KCO1 120921Z 12005KT M02/M03 A3028 RMK A01 T10211033  RH  091%=      5-min Rain = 0
KCO1 120922Z 13005KT M02/M03 A3028 RMK A01 T10201032  RH  091%=      5-min Rain = 0
KCO1 120923Z 14005KT M02/M03 A3028 RMK A01 T10201032  RH  092%=      5-min Rain = 0
KCO1 120924Z 14005KT M02/M03 A3028 RMK A01 T10191031  RH  091%=      5-min Rain = 0
KCO1 120925Z 14005KT M02/M03 A3028 RMK A01 T10191032  RH  091%=      5-min Rain = 0
KCO1 120926Z 14006KT M02/M03 A3028 RMK A01 T10201033  RH  091%=      5-min Rain = 0
KCO1 120927Z 14005KT M02/M03 A3028 RMK A01 T10201033  RH  091%=      5-min Rain = 0
KCO1 120928Z 13005KT M02/M03 A3028 RMK A01 T10201034  RH  091%=      5-min Rain = 0
KCO1 120929Z 12004KT M02/M03 A3028 RMK A01 T10211034  RH  091%=      5-min Rain = 0
KCO1 120930Z 12004KT M02/M04 A3028 RMK A01 T10211035  RH  090%=      5-min Rain = 0
KCO1 120931Z 13004KT M02/M04 A3028 RMK A01 T10211035  RH  091%=      5-min Rain = 0
KCO1 120932Z 12004KT M02/M04 A3028 RMK A01 T10221035  RH  091%=      5-min Rain = 0
KCO1 120933Z 11004KT M02/M03 A3028 RMK A01 T10211034  RH  091%=      5-min Rain = 0
KCO1 120934Z 11004KT M02/M03 A3028 RMK A01 T10211033  RH  091%=      5-min Rain = 0
KCO1 120935Z 12003KT M02/M03 A3027 RMK A01 T10201033  RH  091%=      5-min Rain = 0
KCO1 120936Z 11003KT M02/M03 A3027 RMK A01 T10201032  RH  092%=      5-min Rain = 0
KCO1 120937Z 12004KT M02/M03 A3027 RMK A01 T10201032  RH  092%=      5-min Rain = 0
KCO1 120938Z 11004KT M02/M03 A3027 RMK A01 T10201033  RH  091%=      5-min Rain = 0
KCO1 120939Z 11004KT M02/M03 A3027 RMK A01 T10211033  RH  091%=      5-min Rain = 0
KCO1 120940Z 12004KT M02/M03 A3027 RMK A01 T10211033  RH  091%=      5-min Rain = 0
KCO1 120941Z 12004KT M02/M03 A3027 RMK A01 T10211034  RH  091%=      5-min Rain = 0
KCO1 120942Z 11004KT M02/M03 A3027 RMK A01 T10211033  RH  091%=      5-min Rain = 0
KCO1 120943Z 12004KT M02/M03 A3027 RMK A01 T10211034  RH  091%=      5-min Rain = 0
KCO1 120944Z 12004KT M02/M03 A3027 RMK A01 T10221034  RH  091%=      5-min Rain = 0
KCO1 120945Z 12004KT M02/M03 A3027 RMK A01 T10221034  RH  091%=      5-min Rain = 0
KCO1 120946Z 11004KT M02/M03 A3027 RMK A01 T10221034  RH  091%=      5-min Rain = 0
KCO1 120947Z 11004KT M02/M03 A3027 RMK A01 T10221034  RH  092%=      5-min Rain = 0
KCO1 120948Z 11004KT M02/M03 A3027 RMK A01 T10221034  RH  092%=      5-min Rain = 0
KCO1 120949Z 11004KT M02/M03 A3027 RMK A01 T10221034  RH  092%=      5-min Rain = 0
KCO1 120950Z 12004KT M02/M03 A3027 RMK A01 T10221034  RH  092%=      5-min Rain = 0
KCO1 120951Z 12004KT M02/M03 A3027 RMK A01 T10221034  RH  092%=      5-min Rain = 0
KCO1 120952Z 12004KT M02/M03 A3027 RMK A01 T10231034  RH  092%=      5-min Rain = 0
KCO1 120953Z 12004KT M02/M04 A3026 RMK A01 T10231035  RH  092%=      5-min Rain = 0
KCO1 120954Z 12004KT M02/M04 A3026 RMK A01 T10241035  RH  092%=      5-min Rain = 0
KCO1 120955Z 13004KT M02/M04 A3026 RMK A01 T10241036  RH  092%=      5-min Rain = 0
KCO1 120956Z 12004KT M03/M04 A3027 RMK A01 T10251036  RH  092%=      5-min Rain = 0
KCO1 120957Z 12004KT M03/M04 A3027 RMK A01 T10261038  RH  092%=      5-min Rain = 0
KCO1 120958Z 13004KT M03/M04 A3027 RMK A01 T10271039  RH  092%=      5-min Rain = 0
KCO1 120959Z 14004KT M03/M04 A3027 RMK A01 T10281039  RH  092%=      5-min Rain = 0
KCO1 121000Z 14004KT M03/M04 A3026 RMK A01 T10281040  RH  092%=      5-min Rain = 0
KCO1 121001Z 13003KT M03/M04 A3026 RMK A01 T10291040  RH  092%=      5-min Rain = 0
KCO1 121002Z 12003KT M03/M04 A3026 RMK A01 T10291041  RH  092%=      5-min Rain = 0
KCO1 121003Z 13003KT M03/M04 A3026 RMK A01 T10301041  RH  092%=      5-min Rain = 0
KCO1 121004Z 12004KT M03/M04 A3027 RMK A01 T10301041  RH  092%=      5-min Rain = 0
KCO1 121005Z 11004KT M03/M04 A3027 RMK A01 T10301041  RH  092%=      5-min Rain = 0
KCO1 121006Z 11004KT M03/M04 A3027 RMK A01 T10301040  RH  093%=      5-min Rain = 0
KCO1 121007Z 12004KT M03/M04 A3027 RMK A01 T10291039  RH  093%=      5-min Rain = 0
KCO1 121008Z 12004KT M03/M04 A3027 RMK A01 T10291038  RH  093%=      5-min Rain = 0
KCO1 121009Z 12003KT M03/M04 A3027 RMK A01 T10281037  RH  093%=      5-min Rain = 0
KCO1 121010Z 12003KT M03/M04 A3027 RMK A01 T10281037  RH  093%=      5-min Rain = 0
KCO1 121011Z 12003KT M03/M04 A3027 RMK A01 T10281037  RH  093%=      5-min Rain = 0
KCO1 121012Z 12003KT M03/M04 A3027 RMK A01 T10291038  RH  093%=      5-min Rain = 0
KCO1 121013Z 13003KT M03/M04 A3027 RMK A01 T10281038  RH  093%=      5-min Rain = 0
KCO1 121014Z 13003KT M03/M04 A3027 RMK A01 T10281037  RH  093%=      5-min Rain = 0
KCO1 121015Z 13003KT M03/M04 A3027 RMK A01 T10291038  RH  093%=      5-min Rain = 0
KCO1 121016Z 13003KT M03/M04 A3027 RMK A01 T10281037  RH  094%=      5-min Rain = 0
KCO1 121017Z 13003KT M03/M04 A3027 RMK A01 T10291038  RH  093%=      5-min Rain = 0
KCO1 121018Z 13003KT M03/M04 A3027 RMK A01 T10291038  RH  093%=      5-min Rain = 0
KCO1 121019Z 11002KT M03/M04 A3027 RMK A01 T10291038  RH  093%=      5-min Rain = 0
KCO1 121020Z 09002KT M03/M04 A3027 RMK A01 T10291038  RH  094%=      5-min Rain = 0
KCO1 121021Z 07002KT M03/M04 A3027 RMK A01 T10291037  RH  094%=      5-min Rain = 0
KCO1 121022Z 05002KT M03/M04 A3027 RMK A01 T10291038  RH  094%=      5-min Rain = 0
KCO1 121023Z 05002KT M03/M04 A3027 RMK A01 T10301039  RH  094%=      5-min Rain = 0
KCO1 121024Z 04002KT M03/M04 A3027 RMK A01 T10301040  RH  093%=      5-min Rain = 0
KCO1 121025Z 03003KT M03/M04 A3027 RMK A01 T10301039  RH  093%=      5-min Rain = 0
KCO1 121026Z 03003KT M03/M04 A3027 RMK A01 T10301040  RH  094%=      5-min Rain = 0
KCO1 121027Z 03004KT M03/M04 A3027 RMK A01 T10311040  RH  093%=      5-min Rain = 0
KCO1 121028Z 03004KT M03/M04 A3027 RMK A01 T10311041  RH  093%=      5-min Rain = 0
KCO1 121029Z 04004KT M03/M04 A3027 RMK A01 T10321041  RH  093%=      5-min Rain = 0
KCO1 121030Z 05005KT M03/M04 A3027 RMK A01 T10321041  RH  094%=      5-min Rain = 0
KCO1 121031Z 05004KT M03/M04 A3027 RMK A01 T10321041  RH  094%=      5-min Rain = 0
KCO1 121032Z 05004KT M03/M04 A3027 RMK A01 T10321040  RH  094%=      5-min Rain = 0
KCO1 121033Z 05004KT M03/M04 A3027 RMK A01 T10311040  RH  094%=      5-min Rain = 0
KCO1 121034Z 05005KT M03/M04 A3027 RMK A01 T10311039  RH  094%=      5-min Rain = 0
KCO1 121035Z 06005KT M03/M04 A3027 RMK A01 T10311039  RH  094%=      5-min Rain = 0
KCO1 121036Z 06006KT M03/M04 A3027 RMK A01 T10301038  RH  094%=      5-min Rain = 0
KCO1 121037Z 06006KT M03/M04 A3027 RMK A01 T10301037  RH  094%=      5-min Rain = 0
KCO1 121038Z 07005KT M03/M04 A3027 RMK A01 T10291036  RH  095%=      5-min Rain = 0
KCO1 121039Z 07005KT M03/M04 A3027 RMK A01 T10281035  RH  095%=      5-min Rain = 0
KCO1 121040Z 06006KT M03/M03 A3027 RMK A01 T10271034  RH  095%=      5-min Rain = 0
KCO1 121041Z 07007KT M03/M03 A3027 RMK A01 T10271034  RH  095%=      5-min Rain = 0
KCO1 121042Z 07007KT M03/M03 A3026 RMK A01 T10271034  RH  095%=      5-min Rain = 0
KCO1 121043Z 07007KT M03/M04 A3026 RMK A01 T10271035  RH  094%=      5-min Rain = 0
KCO1 121044Z 07007KT M03/M04 A3026 RMK A01 T10281036  RH  094%=      5-min Rain = 0
KCO1 121045Z 07006KT M03/M04 A3026 RMK A01 T10271036  RH  094%=      5-min Rain = 0
KCO1 121046Z 07006KT M03/M04 A3026 RMK A01 T10281037  RH  094%=      5-min Rain = 0
KCO1 121047Z 07005KT M03/M04 A3026 RMK A01 T10281037  RH  094%=      5-min Rain = 0
KCO1 121048Z 07005KT M03/M04 A3026 RMK A01 T10291038  RH  094%=      5-min Rain = 0
KCO1 121049Z 07006KT M03/M04 A3026 RMK A01 T10291038  RH  093%=      5-min Rain = 0
KCO1 121050Z 07006KT M03/M04 A3027 RMK A01 T10291038  RH  093%=      5-min Rain = 0
KCO1 121051Z 07006KT M03/M04 A3027 RMK A01 T10291038  RH  093%=      5-min Rain = 0
KCO1 121052Z 07007KT M03/M04 A3027 RMK A01 T10291038  RH  093%=      5-min Rain = 0
KCO1 121053Z 07007KT M03/M04 A3027 RMK A01 T10291038  RH  094%=      5-min Rain = 0
KCO1 121054Z 07006KT M03/M04 A3027 RMK A01 T10291037  RH  094%=      5-min Rain = 0
KCO1 121055Z 07006KT M03/M04 A3027 RMK A01 T10281037  RH  094%=      5-min Rain = 0
KCO1 121056Z 08006KT M03/M04 A3027 RMK A01 T10271036  RH  094%=      5-min Rain = 0
KCO1 121057Z 08007KT M03/M04 A3026 RMK A01 T10271035  RH  094%=      5-min Rain = 0
KCO1 121058Z 08006KT M03/M04 A3026 RMK A01 T10271035  RH  094%=      5-min Rain = 0
KCO1 121059Z 09006KT M03/M04 A3026 RMK A01 T10271035  RH  094%=      5-min Rain = 0
KCO1 121100Z 09006KT M03/M04 A3026 RMK A01 T10271036  RH  094%=      5-min Rain = 0
KCO1 121101Z 09006KT M03/M04 A3026 RMK A01 T10271036  RH  093%=      5-min Rain = 0
KCO1 121102Z 10006KT M03/M04 A3026 RMK A01 T10281037  RH  093%=      5-min Rain = 0
KCO1 121103Z 09007KT M03/M04 A3025 RMK A01 T10281037  RH  093%=      5-min Rain = 0
KCO1 121104Z 10007KT M03/M04 A3025 RMK A01 T10281037  RH  093%=      5-min Rain = 0
KCO1 121105Z 10007KT M03/M04 A3025 RMK A01 T10281037  RH  093%=      5-min Rain = 0
KCO1 121106Z 10007KT M03/M04 A3025 RMK A01 T10271037  RH  094%=      5-min Rain = 0
KCO1 121107Z 10006KT M03/M04 A3025 RMK A01 T10271036  RH  094%=      5-min Rain = 0
KCO1 121108Z 10006KT M03/M04 A3025 RMK A01 T10271037  RH  093%=      5-min Rain = 0
KCO1 121109Z 10007KT M03/M04 A3025 RMK A01 T10271036  RH  093%=      5-min Rain = 0
KCO1 121110Z 10006KT M03/M04 A3025 RMK A01 T10271036  RH  093%=      5-min Rain = 0
KCO1 121111Z 10007KT M03/M04 A3025 RMK A01 T10281037  RH  093%=      5-min Rain = 0
KCO1 121112Z 10007KT M03/M04 A3025 RMK A01 T10281037  RH  093%=      5-min Rain = 0
KCO1 121113Z 10007KT M03/M04 A3025 RMK A01 T10281037  RH  093%=      5-min Rain = 0
KCO1 121114Z 10006KT M03/M04 A3025 RMK A01 T10281037  RH  093%=      5-min Rain = 0
KCO1 121115Z 10006KT M03/M04 A3025 RMK A01 T10281037  RH  094%=      5-min Rain = 0
KCO1 121116Z 10006KT M03/M04 A3025 RMK A01 T10281037  RH  094%=      5-min Rain = 0
KCO1 121117Z 10006KT M03/M04 A3025 RMK A01 T10281037  RH  094%=      5-min Rain = 0
KCO1 121118Z 10006KT M03/M04 A3025 RMK A01 T10281037  RH  094%=      5-min Rain = 0
KCO1 121119Z 10006KT M03/M04 A3025 RMK A01 T10281037  RH  094%=      5-min Rain = 0
KCO1 121120Z 10006KT M03/M04 A3025 RMK A01 T10281037  RH  094%=      5-min Rain = 0
KCO1 121121Z 10006KT M03/M04 A3025 RMK A01 T10281037  RH  094%=      5-min Rain = 0
KCO1 121122Z 10006KT M03/M04 A3025 RMK A01 T10281037  RH  094%=      5-min Rain = 0
KCO1 121123Z 10006KT M03/M04 A3025 RMK A01 T10281037  RH  094%=      5-min Rain = 0
KCO1 121124Z 10007KT M03/M04 A3025 RMK A01 T10291038  RH  094%=      5-min Rain = 0
KCO1 121125Z 10006KT M03/M04 A3024 RMK A01 T10291038  RH  094%=      5-min Rain = 0
KCO1 121126Z 10007KT M03/M04 A3024 RMK A01 T10291038  RH  094%=      5-min Rain = 0
KCO1 121127Z 10007KT M03/M04 A3024 RMK A01 T10291038  RH  094%=      5-min Rain = 0
KCO1 121128Z 11007KT M03/M04 A3024 RMK A01 T10291038  RH  094%=      5-min Rain = 0
KCO1 121129Z 11007KT M03/M04 A3024 RMK A01 T10291038  RH  094%=      5-min Rain = 0
KCO1 121130Z 11007KT M03/M04 A3024 RMK A01 T10291038  RH  094%=      5-min Rain = 0
KCO1 121131Z 11007KT M03/M04 A3024 RMK A01 T10291037  RH  094%=      5-min Rain = 0
KCO1 121132Z 11006KT M03/M04 A3024 RMK A01 T10291037  RH  094%=      5-min Rain = 0
KCO1 121133Z 11006KT M03/M04 A3024 RMK A01 T10291037  RH  094%=      5-min Rain = 0
KCO1 121134Z 11007KT M03/M04 A3024 RMK A01 T10291037  RH  094%=      5-min Rain = 0
KCO1 121135Z 12007KT M03/M04 A3024 RMK A01 T10291038  RH  094%=      5-min Rain = 0
KCO1 121136Z 12007KT M03/M04 A3023 RMK A01 T10291038  RH  094%=      5-min Rain = 0
KCO1 121137Z 12007KT M03/M04 A3023 RMK A01 T10291038  RH  094%=      5-min Rain = 0
KCO1 121138Z 12007KT M03/M04 A3023 RMK A01 T10291037  RH  094%=      5-min Rain = 0
KCO1 121139Z 12007KT M03/M04 A3023 RMK A01 T10291037  RH  094%=      5-min Rain = 0
KCO1 121140Z 12007KT M03/M04 A3023 RMK A01 T10291037  RH  094%=      5-min Rain = 0
KCO1 121141Z 12007KT M03/M04 A3023 RMK A01 T10291037  RH  094%=      5-min Rain = 0
KCO1 121142Z 12006KT M03/M04 A3023 RMK A01 T10281037  RH  094%=      5-min Rain = 0
KCO1 121143Z 12006KT M03/M04 A3023 RMK A01 T10281037  RH  094%=      5-min Rain = 0
KCO1 121144Z 12006KT M03/M04 A3023 RMK A01 T10281037  RH  094%=      5-min Rain = 0
KCO1 121145Z 13006KT M03/M04 A3023 RMK A01 T10291038  RH  094%=      5-min Rain = 0
KCO1 121146Z 13006KT M03/M04 A3023 RMK A01 T10291038  RH  093%=      5-min Rain = 0
KCO1 121147Z 12005KT M03/M04 A3023 RMK A01 T10291038  RH  093%=      5-min Rain = 0
KCO1 121148Z 12005KT M03/M04 A3023 RMK A01 T10291039  RH  093%=      5-min Rain = 0
KCO1 121149Z 12006KT M03/M04 A3023 RMK A01 T10291039  RH  093%=      5-min Rain = 0
KCO1 121150Z 12006KT M03/M04 A3023 RMK A01 T10291039  RH  093%=      5-min Rain = 0
KCO1 121151Z 12006KT M03/M04 A3023 RMK A01 T10301039  RH  093%=      5-min Rain = 0
KCO1 121152Z 12006KT M03/M04 A3023 RMK A01 T10301039  RH  093%=      5-min Rain = 0
KCO1 121153Z 12006KT M03/M04 A3023 RMK A01 T10301039  RH  093%=      5-min Rain = 0
KCO1 121154Z 12006KT M03/M04 A3023 RMK A01 T10301039  RH  093%=      5-min Rain = 0
KCO1 121155Z 12006KT M03/M04 A3023 RMK A01 T10301039  RH  093%=      5-min Rain = 0
KCO1 121156Z 12006KT M03/M04 A3022 RMK A01 T10291039  RH  093%=      5-min Rain = 0
KCO1 121157Z 12007KT M03/M04 A3022 RMK A01 T10291038  RH  093%=      5-min Rain = 0
KCO1 121158Z 12006KT M03/M04 A3022 RMK A01 T10291038  RH  093%=      5-min Rain = 0
KCO1 121159Z 12006KT M03/M04 A3022 RMK A01 T10281038  RH  093%=      5-min Rain = 0
KCO1 121200Z 12006KT M03/M04 A3022 RMK A01 T10281038  RH  093%=      5-min Rain = 0
KCO1 121201Z 12006KT M03/M04 A3022 RMK A01 T10281038  RH  093%=      5-min Rain = 0
KCO1 121202Z 12006KT M03/M04 A3022 RMK A01 T10281038  RH  093%=      5-min Rain = 0
KCO1 121203Z 12005KT M03/M04 A3022 RMK A01 T10291038  RH  093%=      5-min Rain = 0
KCO1 121204Z 12006KT M03/M04 A3022 RMK A01 T10281038  RH  093%=      5-min Rain = 0
KCO1 121205Z 12006KT M03/M04 A3022 RMK A01 T10291038  RH  093%=      5-min Rain = 0
KCO1 121206Z 12006KT M03/M04 A3022 RMK A01 T10291039  RH  093%=      5-min Rain = 0
KCO1 121207Z 12006KT M03/M04 A3022 RMK A01 T10291039  RH  093%=      5-min Rain = 0
KCO1 121208Z 12006KT M03/M04 A3022 RMK A01 T10291039  RH  093%=      5-min Rain = 0
KCO1 121209Z 11005KT M03/M04 A3023 RMK A01 T10291039  RH  093%=      5-min Rain = 0
KCO1 121210Z 12006KT M03/M04 A3023 RMK A01 T10291039  RH  093%=      5-min Rain = 0
KCO1 121211Z 11005KT M03/M04 A3023 RMK A01 T10291039  RH  093%=      5-min Rain = 0
KCO1 121212Z 12006KT M03/M04 A3023 RMK A01 T10291039  RH  093%=      5-min Rain = 0
KCO1 121213Z 11005KT M03/M04 A3023 RMK A01 T10291040  RH  093%=      5-min Rain = 0
KCO1 121214Z 11005KT M03/M04 A3023 RMK A01 T10301040  RH  093%=      5-min Rain = 0
KCO1 121215Z 11006KT M03/M04 A3023 RMK A01 T10301040  RH  093%=      5-min Rain = 0
KCO1 121216Z 12006KT M03/M04 A3023 RMK A01 T10301040  RH  093%=      5-min Rain = 0
KCO1 121217Z 12005KT M03/M04 A3023 RMK A01 T10301040  RH  093%=      5-min Rain = 0
KCO1 121218Z 12005KT M03/M04 A3023 RMK A01 T10301040  RH  093%=      5-min Rain = 0
KCO1 121219Z 12006KT M03/M04 A3023 RMK A01 T10301040  RH  092%=      5-min Rain = 0
KCO1 121220Z 11006KT M03/M04 A3023 RMK A01 T10301040  RH  092%=      5-min Rain = 0
KCO1 121221Z 12005KT M03/M04 A3023 RMK A01 T10301041  RH  092%=      5-min Rain = 0
KCO1 121222Z 11005KT M03/M04 A3023 RMK A01 T10301040  RH  092%=      5-min Rain = 0
KCO1 121223Z 11005KT M03/M04 A3023 RMK A01 T10291040  RH  092%=      5-min Rain = 0
KCO1 121224Z 11005KT M03/M04 A3023 RMK A01 T10301041  RH  092%=      5-min Rain = 0
KCO1 121225Z 10005KT M03/M04 A3023 RMK A01 T10301041  RH  092%=      5-min Rain = 0
KCO1 121226Z 11005KT M03/M04 A3023 RMK A01 T10301041  RH  092%=      5-min Rain = 0
KCO1 121227Z 11005KT M03/M04 A3023 RMK A01 T10301041  RH  092%=      5-min Rain = 0
KCO1 121228Z 10005KT M03/M04 A3024 RMK A01 T10291040  RH  092%=      5-min Rain = 0
KCO1 121229Z 10005KT M03/M04 A3024 RMK A01 T10301040  RH  092%=      5-min Rain = 0
KCO1 121230Z 10006KT M03/M04 A3024 RMK A01 T10291040  RH  092%=      5-min Rain = 0
KCO1 121231Z 10006KT M03/M04 A3023 RMK A01 T10291040  RH  092%=      5-min Rain = 0
KCO1 121232Z 10006KT M03/M04 A3023 RMK A01 T10291040  RH  092%=      5-min Rain = 0
KCO1 121233Z 11006KT M03/M04 A3023 RMK A01 T10291039  RH  092%=      5-min Rain = 0
KCO1 121234Z 11006KT M03/M04 A3023 RMK A01 T10281039  RH  092%=      5-min Rain = 0
KCO1 121235Z 11006KT M03/M04 A3023 RMK A01 T10281039  RH  092%=      5-min Rain = 0
KCO1 121236Z 11007KT M03/M04 A3023 RMK A01 T10281039  RH  092%=      5-min Rain = 0
KCO1 121237Z 11007KT M03/M04 A3023 RMK A01 T10281039  RH  092%=      5-min Rain = 0
KCO1 121238Z 11006KT M03/M04 A3022 RMK A01 T10281039  RH  092%=      5-min Rain = 0
KCO1 121239Z 11007KT M03/M04 A3022 RMK A01 T10281039  RH  092%=      5-min Rain = 0
KCO1 121240Z 11007KT M03/M04 A3022 RMK A01 T10271039  RH  092%=      5-min Rain = 0
KCO1 121241Z 11006KT M03/M04 A3023 RMK A01 T10271038  RH  092%=      5-min Rain = 0
KCO1 121242Z 11005KT M03/M04 A3023 RMK A01 T10271038  RH  092%=      5-min Rain = 0
KCO1 121243Z 10005KT M03/M04 A3023 RMK A01 T10271038  RH  092%=      5-min Rain = 0
KCO1 121244Z 10005KT M03/M04 A3023 RMK A01 T10261038  RH  092%=      5-min Rain = 0
KCO1 121245Z 10005KT M03/M04 A3023 RMK A01 T10261038  RH  092%=      5-min Rain = 0
KCO1 121246Z 10005KT M03/M04 A3023 RMK A01 T10261038  RH  092%=      5-min Rain = 0
KCO1 121247Z 10005KT M03/M04 A3023 RMK A01 T10261038  RH  091%=      5-min Rain = 0
KCO1 121248Z 09005KT M03/M04 A3023 RMK A01 T10261038  RH  091%=      5-min Rain = 0
KCO1 121249Z 09005KT M03/M04 A3023 RMK A01 T10261039  RH  091%=      5-min Rain = 0
KCO1 121250Z 09005KT M03/M04 A3023 RMK A01 T10261039  RH  091%=      5-min Rain = 0
KCO1 121251Z 09004KT M03/M04 A3023 RMK A01 T10261039  RH  091%=      5-min Rain = 0
KCO1 121252Z 09004KT M03/M04 A3023 RMK A01 T10261039  RH  091%=      5-min Rain = 0
KCO1 121253Z 10004KT M03/M04 A3023 RMK A01 T10261039  RH  091%=      5-min Rain = 0
KCO1 121254Z 11003KT M03/M04 A3023 RMK A01 T10261039  RH  091%=      5-min Rain = 0
KCO1 121255Z 11003KT M03/M04 A3023 RMK A01 T10271040  RH  091%=      5-min Rain = 0
KCO1 121256Z 10004KT M03/M04 A3023 RMK A01 T10271040  RH  091%=      5-min Rain = 0
KCO1 121257Z 10004KT M03/M04 A3023 RMK A01 T10271041  RH  091%=      5-min Rain = 0
KCO1 121258Z 10004KT M03/M04 A3023 RMK A01 T10281041  RH  091%=      5-min Rain = 0
KCO1 121259Z 09005KT M03/M04 A3023 RMK A01 T10281041  RH  091%=      5-min Rain = 0
KCO1 121300Z 09005KT M03/M04 A3023 RMK A01 T10281041  RH  091%=      5-min Rain = 0
KCO1 121301Z 09005KT M03/M04 A3023 RMK A01 T10281041  RH  091%=      5-min Rain = 0
KCO1 121302Z 10006KT M03/M04 A3023 RMK A01 T10281041  RH  091%=      5-min Rain = 0
KCO1 121303Z 10006KT M03/M04 A3023 RMK A01 T10291041  RH  091%=      5-min Rain = 0
KCO1 121304Z 11005KT M03/M04 A3023 RMK A01 T10281041  RH  091%=      5-min Rain = 0
KCO1 121305Z 11005KT M03/M04 A3023 RMK A01 T10291041  RH  091%=      5-min Rain = 0
KCO1 121306Z 11005KT M03/M04 A3023 RMK A01 T10281041  RH  091%=      5-min Rain = 0
KCO1 121307Z 12005KT M03/M04 A3022 RMK A01 T10291042  RH  091%=      5-min Rain = 0
KCO1 121308Z 12005KT M03/M04 A3022 RMK A01 T10291042  RH  091%=      5-min Rain = 0
KCO1 121309Z 12005KT M03/M04 A3022 RMK A01 T10301043  RH  091%=      5-min Rain = 0
KCO1 121310Z 12005KT M03/M04 A3022 RMK A01 T10301043  RH  091%=      5-min Rain = 0
KCO1 121311Z 12005KT M03/M04 A3022 RMK A01 T10311043  RH  091%=      5-min Rain = 0
KCO1 121312Z 11005KT M03/M04 A3022 RMK A01 T10311043  RH  091%=      5-min Rain = 0
KCO1 121313Z 11005KT M03/M04 A3023 RMK A01 T10311043  RH  091%=      5-min Rain = 0
KCO1 121314Z 11004KT M03/M04 A3023 RMK A01 T10311044  RH  091%=      5-min Rain = 0
KCO1 121315Z 10003KT M03/M04 A3023 RMK A01 T10311043  RH  091%=      5-min Rain = 0
KCO1 121316Z 10003KT M03/M04 A3023 RMK A01 T10311044  RH  091%=      5-min Rain = 0
KCO1 121317Z 10004KT M03/M04 A3023 RMK A01 T10311043  RH  091%=      5-min Rain = 0
KCO1 121318Z 11005KT M03/M04 A3023 RMK A01 T10311043  RH  092%=      5-min Rain = 0
KCO1 121319Z 11007KT M03/M04 A3023 RMK A01 T10301042  RH  092%=      5-min Rain = 0
KCO1 121320Z 11007KT M03/M04 A3023 RMK A01 T10301041  RH  092%=      5-min Rain = 0
KCO1 121321Z 11006KT M03/M04 A3023 RMK A01 T10301042  RH  091%=      5-min Rain = 0
KCO1 121322Z 11006KT M03/M04 A3023 RMK A01 T10291041  RH  091%=      5-min Rain = 0
KCO1 121323Z 11005KT M03/M04 A3023 RMK A01 T10291041  RH  091%=      5-min Rain = 0
KCO1 121324Z 11005KT M03/M04 A3023 RMK A01 T10281041  RH  091%=      5-min Rain = 0
KCO1 121325Z 10006KT M03/M04 A3023 RMK A01 T10281041  RH  091%=      5-min Rain = 0
KCO1 121326Z 09006KT M03/M04 A3023 RMK A01 T10281042  RH  091%=      5-min Rain = 0
KCO1 121327Z 09005KT M03/M04 A3023 RMK A01 T10281041  RH  090%=      5-min Rain = 0
KCO1 121328Z 09007KT M03/M04 A3023 RMK A01 T10281041  RH  090%=      5-min Rain = 0
KCO1 121329Z 09006KT M03/M04 A3023 RMK A01 T10271041  RH  090%=      5-min Rain = 0
KCO1 121330Z 09006KT M03/M04 A3023 RMK A01 T10271041  RH  090%=      5-min Rain = 0
KCO1 121331Z 09006KT M03/M04 A3023 RMK A01 T10261040  RH  090%=      5-min Rain = 0
KCO1 121332Z 09005KT M03/M04 A3023 RMK A01 T10261041  RH  090%=      5-min Rain = 0
KCO1 121333Z 09005KT M03/M04 A3023 RMK A01 T10261042  RH  089%=      5-min Rain = 0
KCO1 121334Z 10006KT M03/M04 A3023 RMK A01 T10271042  RH  089%=      5-min Rain = 0
KCO1 121335Z 10006KT M03/M04 A3023 RMK A01 T10271043  RH  089%=      5-min Rain = 0
KCO1 121336Z 09005KT M03/M04 A3023 RMK A01 T10271043  RH  089%=      5-min Rain = 0
KCO1 121337Z 09005KT M03/M04 A3023 RMK A01 T10271043  RH  089%=      5-min Rain = 0
KCO1 121338Z 09005KT M03/M04 A3023 RMK A01 T10281043  RH  089%=      5-min Rain = 0
KCO1 121339Z 09005KT M03/M04 A3023 RMK A01 T10271043  RH  089%=      5-min Rain = 0
KCO1 121340Z 09005KT M03/M04 A3023 RMK A01 T10281044  RH  089%=      5-min Rain = 0
KCO1 121341Z 09005KT M03/M04 A3023 RMK A01 T10281044  RH  089%=      5-min Rain = 0
KCO1 121342Z 10005KT M03/M04 A3023 RMK A01 T10281044  RH  089%=      5-min Rain = 0
KCO1 121343Z 10006KT M03/M04 A3023 RMK A01 T10281044  RH  089%=      5-min Rain = 0
KCO1 121344Z 10006KT M03/M04 A3023 RMK A01 T10281044  RH  089%=      5-min Rain = 0
KCO1 121345Z 09006KT M03/M04 A3023 RMK A01 T10271043  RH  089%=      5-min Rain = 0
KCO1 121346Z 09006KT M03/M04 A3024 RMK A01 T10271043  RH  089%=      5-min Rain = 0
KCO1 121347Z 09006KT M03/M04 A3024 RMK A01 T10261043  RH  088%=      5-min Rain = 0
KCO1 121348Z 09006KT M03/M04 A3024 RMK A01 T10261043  RH  088%=      5-min Rain = 0
KCO1 121349Z 08006KT M03/M04 A3024 RMK A01 T10271044  RH  088%=      5-min Rain = 0
KCO1 121350Z 07006KT M03/M04 A3024 RMK A01 T10271044  RH  088%=      5-min Rain = 0
KCO1 121351Z 08005KT M03/M04 A3024 RMK A01 T10261044  RH  088%=      5-min Rain = 0
KCO1 121352Z 07006KT M03/M04 A3024 RMK A01 T10261044  RH  088%=      5-min Rain = 0
KCO1 121353Z 07005KT M03/M04 A3024 RMK A01 T10261044  RH  088%=      5-min Rain = 0
KCO1 121354Z 08004KT M03/M04 A3024 RMK A01 T10261043  RH  088%=      5-min Rain = 0
KCO1 121355Z 08004KT M03/M04 A3024 RMK A01 T10261044  RH  088%=      5-min Rain = 0
KCO1 121356Z 08003KT M03/M04 A3024 RMK A01 T10271044  RH  088%=      5-min Rain = 0
KCO1 121357Z 07003KT M03/M05 A3024 RMK A01 T10281045  RH  088%=      5-min Rain = 0
KCO1 121358Z 06004KT M03/M05 A3024 RMK A01 T10281046  RH  088%=      5-min Rain = 0
KCO1 121359Z 06004KT M03/M05 A3024 RMK A01 T10291046  RH  088%=      5-min Rain = 0
KCO1 121400Z 06004KT M03/M05 A3024 RMK A01 T10291047  RH  088%=      5-min Rain = 0
KCO1 121401Z 05003KT M03/M05 A3024 RMK A01 T10301047  RH  088%=      5-min Rain = 0
KCO1 121402Z 06004KT M03/M05 A3024 RMK A01 T10311049  RH  087%=      5-min Rain = 0
KCO1 121403Z 07004KT M03/M05 A3024 RMK A01 T10321050  RH  087%=      5-min Rain = 0
KCO1 121404Z 07004KT M03/M05 A3024 RMK A01 T10331051  RH  087%=      5-min Rain = 0
KCO1 121405Z 06004KT M03/M05 A3025 RMK A01 T10331051  RH  088%=      5-min Rain = 0
KCO1 121406Z 05004KT M03/M05 A3025 RMK A01 T10331050  RH  088%=      5-min Rain = 0
KCO1 121407Z 05004KT M03/M05 A3025 RMK A01 T10331050  RH  088%=      5-min Rain = 0
KCO1 121408Z 05004KT M03/M05 A3025 RMK A01 T10341051  RH  088%=      5-min Rain = 0
KCO1 121409Z 07004KT M03/M05 A3024 RMK A01 T10341051  RH  088%=      5-min Rain = 0
KCO1 121410Z 07005KT M03/M05 A3024 RMK A01 T10341051  RH  088%=      5-min Rain = 0
KCO1 121411Z 07005KT M03/M05 A3024 RMK A01 T10341051  RH  088%=      5-min Rain = 0
KCO1 121412Z 07005KT M03/M05 A3024 RMK A01 T10331050  RH  088%=      5-min Rain = 0
KCO1 121413Z 07004KT M03/M05 A3024 RMK A01 T10331049  RH  088%=      5-min Rain = 0
KCO1 121414Z 07004KT M03/M05 A3024 RMK A01 T10321048  RH  088%=      5-min Rain = 0
KCO1 121415Z 07004KT M03/M05 A3024 RMK A01 T10311049  RH  088%=      5-min Rain = 0
KCO1 121416Z 08004KT M03/M05 A3024 RMK A01 T10311049  RH  088%=      5-min Rain = 0
KCO1 121417Z 07003KT M03/M05 A3024 RMK A01 T10311049  RH  087%=      5-min Rain = 0
KCO1 121418Z 06003KT M03/M05 A3024 RMK A01 T10301049  RH  087%=      5-min Rain = 0
KCO1 121419Z 07003KT M03/M05 A3024 RMK A01 T10301049  RH  087%=      5-min Rain = 0
KCO1 121420Z 08003KT M03/M05 A3024 RMK A01 T10301049  RH  087%=      5-min Rain = 0
KCO1 121421Z 09004KT M03/M05 A3024 RMK A01 T10291048  RH  087%=      5-min Rain = 0
KCO1 121422Z 09003KT M03/M05 A3024 RMK A01 T10281048  RH  086%=      5-min Rain = 0
KCO1 121423Z 08003KT M03/M05 A3024 RMK A01 T10281048  RH  086%=      5-min Rain = 0
KCO1 121424Z 08003KT M03/M05 A3024 RMK A01 T10271048  RH  086%=      5-min Rain = 0
KCO1 121425Z 08003KT M03/M05 A3024 RMK A01 T10271048  RH  086%=      5-min Rain = 0
KCO1 121426Z 08003KT M03/M05 A3024 RMK A01 T10261047  RH  086%=      5-min Rain = 0
KCO1 121427Z 09003KT M03/M05 A3024 RMK A01 T10261047  RH  086%=      5-min Rain = 0
KCO1 121428Z 09003KT M03/M05 A3024 RMK A01 T10251046  RH  086%=      5-min Rain = 0
KCO1 121429Z 10003KT M02/M05 A3024 RMK A01 T10241045  RH  086%=      5-min Rain = 0
KCO1 121430Z 11003KT M02/M05 A3024 RMK A01 T10241046  RH  085%=      5-min Rain = 0
KCO1 121431Z 11003KT M02/M05 A3024 RMK A01 T10231045  RH  085%=      5-min Rain = 0
KCO1 121432Z 11004KT M02/M05 A3024 RMK A01 T10221045  RH  085%=      5-min Rain = 0
KCO1 121433Z 11004KT M02/M04 A3024 RMK A01 T10221044  RH  085%=      5-min Rain = 0
KCO1 121434Z 10004KT M02/M04 A3024 RMK A01 T10211043  RH  085%=      5-min Rain = 0
KCO1 121435Z 10004KT M02/M04 A3024 RMK A01 T10201042  RH  085%=      5-min Rain = 0
KCO1 121436Z 09004KT M02/M04 A3024 RMK A01 T10191040  RH  085%=      5-min Rain = 0
KCO1 121437Z 09003KT M02/M04 A3024 RMK A01 T10171039  RH  085%=      5-min Rain = 0
KCO1 121438Z 10003KT M02/M04 A3025 RMK A01 T10161038  RH  085%=      5-min Rain = 0
KCO1 121439Z 09004KT M02/M04 A3025 RMK A01 T10151038  RH  084%=      5-min Rain = 0
KCO1 121440Z 09004KT M01/M04 A3025 RMK A01 T10141039  RH  083%=      5-min Rain = 0
KCO1 121441Z 08003KT M01/M04 A3025 RMK A01 T10131039  RH  083%=      5-min Rain = 0
KCO1 121442Z 08003KT M01/M04 A3025 RMK A01 T10121039  RH  082%=      5-min Rain = 0
KCO1 121443Z 08005KT M01/M04 A3025 RMK A01 T10111039  RH  081%=      5-min Rain = 0
KCO1 121444Z 08004KT M01/M04 A3025 RMK A01 T10111040  RH  081%=      5-min Rain = 0
KCO1 121445Z 08003KT M01/M04 A3025 RMK A01 T10101040  RH  080%=      5-min Rain = 0
KCO1 121446Z 09004KT M01/M04 A3025 RMK A01 T10081039  RH  080%=      5-min Rain = 0
KCO1 121447Z 09004KT M01/M04 A3025 RMK A01 T10071039  RH  079%=      5-min Rain = 0
KCO1 121448Z 09003KT M01/M04 A3025 RMK A01 T10061037  RH  079%=      5-min Rain = 0
KCO1 121449Z 09003KT M00/M04 A3025 RMK A01 T10041037  RH  079%=      5-min Rain = 0
KCO1 121450Z 09003KT M00/M04 A3025 RMK A01 T10041037  RH  078%=      5-min Rain = 0
KCO1 121451Z 09003KT M00/M04 A3025 RMK A01 T10031039  RH  077%=      5-min Rain = 0
KCO1 121452Z 09004KT M00/M04 A3025 RMK A01 T10021039  RH  077%=      5-min Rain = 0
KCO1 121453Z 09004KT M00/M04 A3026 RMK A01 T10021039  RH  076%=      5-min Rain = 0
KCO1 121454Z 08003KT M00/M04 A3026 RMK A01 T10021039  RH  076%=      5-min Rain = 0
KCO1 121455Z 08003KT M00/M04 A3026 RMK A01 T10011038  RH  076%=      5-min Rain = 0
KCO1 121456Z 07003KT 00/04 A3026 RMK A01 T00000-37  RH  076%=      5-min Rain = 0
KCO1 121457Z 07004KT 00/M04 A3026 RMK A01 T00011036  RH  076%=      5-min Rain = 0
KCO1 121458Z 09003KT 00/M04 A3026 RMK A01 T00011037  RH  076%=      5-min Rain = 0
KCO1 121459Z 08003KT 00/M04 A3026 RMK A01 T00011038  RH  075%=      5-min Rain = 0
KCO1 121500Z 08004KT 00/M04 A3026 RMK A01 T00011038  RH  075%=      5-min Rain = 0
KCO1 121501Z 08004KT 00/M04 A3026 RMK A01 T00021038  RH  075%=      5-min Rain = 0
KCO1 121502Z 07003KT 00/M04 A3026 RMK A01 T00021039  RH  074%=      5-min Rain = 0
KCO1 121503Z 08004KT 00/M04 A3026 RMK A01 T00031039  RH  074%=      5-min Rain = 0
KCO1 121504Z 08005KT 00/M04 A3026 RMK A01 T00041039  RH  073%=      5-min Rain = 0
KCO1 121505Z 08004KT 00/M04 A3026 RMK A01 T00041040  RH  072%=      5-min Rain = 0
KCO1 121506Z 08003KT 00/M04 A3026 RMK A01 T00041041  RH  072%=      5-min Rain = 0
KCO1 121507Z 08004KT 01/M04 A3026 RMK A01 T00061039  RH  072%=      5-min Rain = 0
KCO1 121508Z 08004KT 01/M04 A3026 RMK A01 T00071039  RH  071%=      5-min Rain = 0
KCO1 121509Z 07003KT 01/M04 A3026 RMK A01 T00081040  RH  071%=      5-min Rain = 0
KCO1 121510Z 08004KT 01/M04 A3026 RMK A01 T00091037  RH  071%=      5-min Rain = 0
KCO1 121511Z 08003KT 01/M04 A3026 RMK A01 T00101036  RH  071%=      5-min Rain = 0
KCO1 121512Z 08004KT 01/M03 A3026 RMK A01 T00121034  RH  071%=      5-min Rain = 0
KCO1 121513Z 07004KT 01/M04 A3026 RMK A01 T00131035  RH  070%=      5-min Rain = 0
KCO1 121514Z 08005KT 01/M04 A3026 RMK A01 T00131037  RH  069%=      5-min Rain = 0
KCO1 121515Z 09004KT 01/M04 A3026 RMK A01 T00141036  RH  069%=      5-min Rain = 0
KCO1 121516Z 08005KT 01/M04 A3027 RMK A01 T00141037  RH  069%=      5-min Rain = 0
KCO1 121517Z 08004KT 02/M04 A3027 RMK A01 T00151037  RH  068%=      5-min Rain = 0
KCO1 121518Z 08003KT 02/M04 A3027 RMK A01 T00161037  RH  068%=      5-min Rain = 0
KCO1 121519Z 09003KT 02/M04 A3027 RMK A01 T00171036  RH  068%=      5-min Rain = 0
KCO1 121520Z 09004KT 02/M04 A3027 RMK A01 T00181035  RH  068%=      5-min Rain = 0
KCO1 121521Z 10005KT 02/M04 A3026 RMK A01 T00181035  RH  068%=      5-min Rain = 0
KCO1 121522Z 09004KT 02/M04 A3026 RMK A01 T00191036  RH  067%=      5-min Rain = 0
KCO1 121523Z 09004KT 02/M04 A3027 RMK A01 T00201035  RH  067%=      5-min Rain = 0
KCO1 121524Z 09004KT 02/M03 A3027 RMK A01 T00221032  RH  068%=      5-min Rain = 0
KCO1 121525Z 09006KT 02/M03 A3027 RMK A01 T00231032  RH  067%=      5-min Rain = 0
KCO1 121526Z 09004KT 02/M03 A3027 RMK A01 T00231034  RH  066%=      5-min Rain = 0
KCO1 121527Z 08005KT 02/M03 A3027 RMK A01 T00241031  RH  067%=      5-min Rain = 0
KCO1 121528Z 09005KT 03/M03 A3027 RMK A01 T00251032  RH  066%=      5-min Rain = 0
KCO1 121529Z 09005KT 03/M03 A3027 RMK A01 T00251034  RH  065%=      5-min Rain = 0
KCO1 121530Z 10004KT 03/M03 A3027 RMK A01 T00261033  RH  065%=      5-min Rain = 0
KCO1 121531Z 10005KT 03/M03 A3027 RMK A01 T00271032  RH  065%=      5-min Rain = 0
KCO1 121532Z 09007KT 03/M03 A3027 RMK A01 T00281033  RH  064%=      5-min Rain = 0
KCO1 121533Z 10006KT 03/M03 A3026 RMK A01 T00281034  RH  064%=      5-min Rain = 0
KCO1 121534Z 11007KT 03/M03 A3026 RMK A01 T00281034  RH  064%=      5-min Rain = 0
KCO1 121535Z 11006KT 03/M03 A3026 RMK A01 T00281034  RH  063%=      5-min Rain = 0
KCO1 121536Z 11005KT 03/M03 A3026 RMK A01 T00291032  RH  064%=      5-min Rain = 0
KCO1 121537Z 11006KT 03/M03 A3026 RMK A01 T00301032  RH  064%=      5-min Rain = 0
KCO1 121538Z 11007KT 03/M03 A3026 RMK A01 T00311032  RH  063%=      5-min Rain = 0
KCO1 121539Z 12007KT 03/M03 A3026 RMK A01 T00321034  RH  062%=      5-min Rain = 0
KCO1 121540Z 12007KT 03/M03 A3026 RMK A01 T00321034  RH  062%=      5-min Rain = 0
KCO1 121541Z 11007KT 03/M03 A3026 RMK A01 T00321034  RH  062%=      5-min Rain = 0
KCO1 121542Z 11006KT 03/M03 A3026 RMK A01 T00321034  RH  062%=      5-min Rain = 0
KCO1 121543Z 11006KT 03/M03 A3026 RMK A01 T00321033  RH  062%=      5-min Rain = 0
KCO1 121544Z 12006KT 03/M03 A3026 RMK A01 T00331033  RH  062%=      5-min Rain = 0
KCO1 121545Z 12005KT 03/M03 A3026 RMK A01 T00341031  RH  063%=      5-min Rain = 0
KCO1 121546Z 11006KT 04/M03 A3026 RMK A01 T00361028  RH  063%=      5-min Rain = 0
KCO1 121547Z 12006KT 04/M03 A3027 RMK A01 T00361030  RH  062%=      5-min Rain = 0
KCO1 121548Z 12007KT 04/M03 A3027 RMK A01 T00371031  RH  061%=      5-min Rain = 0
KCO1 121549Z 12007KT 04/M03 A3027 RMK A01 T00371031  RH  061%=      5-min Rain = 0
KCO1 121550Z 11007KT 04/M03 A3027 RMK A01 T00371032  RH  061%=      5-min Rain = 0
KCO1 121551Z 11006KT 04/M03 A3027 RMK A01 T00371032  RH  061%=      5-min Rain = 0
KCO1 121552Z 11005KT 04/M03 A3027 RMK A01 T00371032  RH  061%=      5-min Rain = 0
KCO1 121553Z 10006KT 04/M03 A3027 RMK A01 T00371031  RH  061%=      5-min Rain = 0
KCO1 121554Z 11004KT 04/M03 A3027 RMK A01 T00371030  RH  062%=      5-min Rain = 0
KCO1 121555Z 12004KT 04/M03 A3027 RMK A01 T00391026  RH  062%=      5-min Rain = 0
KCO1 121556Z 13005KT 04/M03 A3027 RMK A01 T00411027  RH  061%=      5-min Rain = 0
KCO1 121557Z 12005KT 04/M03 A3027 RMK A01 T00411028  RH  061%=      5-min Rain = 0
KCO1 121558Z 11005KT 04/M03 A3027 RMK A01 T00421027  RH  061%=      5-min Rain = 0
KCO1 121559Z 12006KT 04/M03 A3027 RMK A01 T00421028  RH  060%=      5-min Rain = 0
KCO1 121600Z 12007KT 04/M03 A3027 RMK A01 T00421029  RH  060%=      5-min Rain = 0
KCO1 121601Z 13007KT 04/M03 A3027 RMK A01 T00421029  RH  060%=      5-min Rain = 0
KCO1 121602Z 12006KT 04/M03 A3027 RMK A01 T00411030  RH  060%=      5-min Rain = 0
KCO1 121603Z 13006KT 04/M03 A3027 RMK A01 T00421029  RH  060%=      5-min Rain = 0
KCO1 121604Z 11005KT 04/M03 A3027 RMK A01 T00431027  RH  060%=      5-min Rain = 0
KCO1 121605Z 11004KT 04/M03 A3027 RMK A01 T00441026  RH  060%=      5-min Rain = 0
KCO1 121606Z 12003KT 05/M03 A3027 RMK A01 T00451025  RH  060%=      5-min Rain = 0
KCO1 121607Z 14005KT 05/M02 A3027 RMK A01 T00471024  RH  060%=      5-min Rain = 0
KCO1 121608Z 14004KT 05/M03 A3027 RMK A01 T00471025  RH  059%=      5-min Rain = 0
KCO1 121609Z 11004KT 05/M02 A3027 RMK A01 T00481024  RH  060%=      5-min Rain = 0
KCO1 121610Z 14005KT 05/M02 A3027 RMK A01 T00491022  RH  060%=      5-min Rain = 0
KCO1 121611Z 14005KT 05/M02 A3027 RMK A01 T00501022  RH  059%=      5-min Rain = 0
KCO1 121612Z 13004KT 05/M02 A3027 RMK A01 T00501023  RH  059%=      5-min Rain = 0
KCO1 121613Z 13005KT 05/M02 A3026 RMK A01 T00501024  RH  059%=      5-min Rain = 0
KCO1 121614Z 12005KT 05/M02 A3026 RMK A01 T00511022  RH  059%=      5-min Rain = 0
KCO1 121615Z 11005KT 05/M02 A3026 RMK A01 T00521022  RH  059%=      5-min Rain = 0
KCO1 121616Z 12005KT 05/M02 A3026 RMK A01 T00521022  RH  059%=      5-min Rain = 0
KCO1 121617Z 13005KT 05/M02 A3026 RMK A01 T00521021  RH  059%=      5-min Rain = 0
KCO1 121618Z 13006KT 05/M02 A3026 RMK A01 T00531019  RH  059%=      5-min Rain = 0
KCO1 121619Z 14005KT 05/M02 A3026 RMK A01 T00541019  RH  059%=      5-min Rain = 0
KCO1 121620Z 14006KT 06/M02 A3026 RMK A01 T00551019  RH  059%=      5-min Rain = 0
KCO1 121621Z 15005KT 06/M02 A3026 RMK A01 T00551019  RH  059%=      5-min Rain = 0
KCO1 121622Z 13004KT 06/M02 A3026 RMK A01 T00551019  RH  059%=      5-min Rain = 0
KCO1 121623Z 13006KT 06/M02 A3026 RMK A01 T00551018  RH  059%=      5-min Rain = 0
KCO1 121624Z 14004KT 06/M02 A3026 RMK A01 T00571016  RH  059%=      5-min Rain = 0
KCO1 121625Z 16005KT 06/M02 A3026 RMK A01 T00571016  RH  059%=      5-min Rain = 0
KCO1 121626Z 16005KT 06/M02 A3026 RMK A01 T00581017  RH  058%=      5-min Rain = 0
KCO1 121627Z 13005KT 06/M02 A3026 RMK A01 T00581016  RH  059%=      5-min Rain = 0
KCO1 121628Z 12005KT 06/M01 A3026 RMK A01 T00611012  RH  059%=      5-min Rain = 0
KCO1 121629Z 13005KT 06/M01 A3026 RMK A01 T00631012  RH  059%=      5-min Rain = 0
KCO1 121630Z 13005KT 07/M01 A3026 RMK A01 T00651011  RH  058%=      5-min Rain = 0
KCO1 121631Z 14006KT 07/M01 A3026 RMK A01 T00661012  RH  058%=      5-min Rain = 0
KCO1 121632Z 13005KT 07/M01 A3026 RMK A01 T00651012  RH  058%=      5-min Rain = 0
KCO1 121633Z 13004KT 07/M01 A3026 RMK A01 T00671009  RH  058%=      5-min Rain = 0
KCO1 121634Z 13004KT 07/M01 A3026 RMK A01 T00691008  RH  058%=      5-min Rain = 0
KCO1 121635Z 12003KT 07/M01 A3026 RMK A01 T00701009  RH  057%=      5-min Rain = 0
KCO1 121636Z 12005KT 07/M01 A3026 RMK A01 T00711009  RH  057%=      5-min Rain = 0
KCO1 121637Z 14004KT 07/M01 A3026 RMK A01 T00711009  RH  056%=      5-min Rain = 0
KCO1 121638Z 14005KT 07/M01 A3026 RMK A01 T00721007  RH  057%=      5-min Rain = 0
KCO1 121639Z 13005KT 07/M01 A3026 RMK A01 T00721008  RH  057%=      5-min Rain = 0
KCO1 121640Z 13006KT 07/M01 A3026 RMK A01 T00721007  RH  057%=      5-min Rain = 0
KCO1 121641Z 14005KT 07/M01 A3026 RMK A01 T00721008  RH  057%=      5-min Rain = 0
KCO1 121642Z 14005KT 07/M01 A3026 RMK A01 T00721008  RH  057%=      5-min Rain = 0
KCO1 121643Z 15005KT 07/M01 A3026 RMK A01 T00721005  RH  058%=      5-min Rain = 0
KCO1 121644Z 15006KT 07/M01 A3026 RMK A01 T00741006  RH  057%=      5-min Rain = 0
KCO1 121645Z 14007KT 07/M01 A3026 RMK A01 T00741005  RH  057%=      5-min Rain = 0
KCO1 121646Z 14007KT 08/M01 A3026 RMK A01 T00751005  RH  057%=      5-min Rain = 0
KCO1 121647Z 15007KT 08/M01 A3026 RMK A01 T00761005  RH  056%=      5-min Rain = 0
KCO1 121648Z 14007KT 08/M01 A3026 RMK A01 T00751005  RH  057%=      5-min Rain = 0
KCO1 121649Z 15005KT 08/M00 A3026 RMK A01 T00761004  RH  057%=      5-min Rain = 0
KCO1 121650Z 13005KT 08/M00 A3026 RMK A01 T00761003  RH  057%=      5-min Rain = 0
KCO1 121651Z 13003KT 08/M00 A3026 RMK A01 T00771002  RH  058%=      5-min Rain = 0
KCO1 121652Z 14007KT 08/M00 A3026 RMK A01 T00781001  RH  057%=      5-min Rain = 0
KCO1 121653Z 14007KT 08/M00 A3025 RMK A01 T00791002  RH  057%=      5-min Rain = 0
KCO1 121654Z 14006KT 08/M00 A3025 RMK A01 T00781003  RH  057%=      5-min Rain = 0
KCO1 121655Z 14006KT 08/M00 A3025 RMK A01 T00771003  RH  057%=      5-min Rain = 0
KCO1 121656Z 14005KT 08/M00 A3025 RMK A01 T00771002  RH  057%=      5-min Rain = 0
KCO1 121657Z 15006KT 08/00 A3025 RMK A01 T00770001  RH  058%=      5-min Rain = 0
KCO1 121658Z 15006KT 08/00 A3025 RMK A01 T00800002  RH  058%=      5-min Rain = 0
KCO1 121659Z 13006KT 08/00 A3025 RMK A01 T00810002  RH  057%=      5-min Rain = 0
KCO1 121700Z 12006KT 08/00 A3025 RMK A01 T00810002  RH  058%=      5-min Rain = 0
KCO1 121701Z 13007KT 08/00 A3025 RMK A01 T00820003  RH  057%=      5-min Rain = 0
KCO1 121702Z 14006KT 08/00 A3025 RMK A01 T00820002  RH  057%=      5-min Rain = 0
KCO1 121703Z 13006KT 08/00 A3025 RMK A01 T00820004  RH  058%=      5-min Rain = 0
KCO1 121704Z 13006KT 08/00 A3025 RMK A01 T00830004  RH  058%=      5-min Rain = 0
KCO1 121705Z 14006KT 08/00 A3025 RMK A01 T00830003  RH  057%=      5-min Rain = 0
KCO1 121706Z 14005KT 08/00 A3025 RMK A01 T00830004  RH  058%=      5-min Rain = 0
KCO1 121707Z 13006KT 09/01 A3025 RMK A01 T00860007  RH  058%=      5-min Rain = 0
KCO1 121708Z 13006KT 09/01 A3025 RMK A01 T00860006  RH  057%=      5-min Rain = 0
KCO1 121709Z 14007KT 09/01 A3025 RMK A01 T00860006  RH  057%=      5-min Rain = 0
KCO1 121710Z 14006KT 09/01 A3025 RMK A01 T00860007  RH  057%=      5-min Rain = 0
KCO1 121711Z 15005KT 09/01 A3025 RMK A01 T00870007  RH  057%=      5-min Rain = 0
KCO1 121712Z 13005KT 09/01 A3025 RMK A01 T00880008  RH  057%=      5-min Rain = 0
KCO1 121713Z 13006KT 09/01 A3025 RMK A01 T00890009  RH  057%=      5-min Rain = 0
KCO1 121714Z 14006KT 09/01 A3025 RMK A01 T00890009  RH  057%=      5-min Rain = 0
KCO1 121715Z 15006KT 09/01 A3025 RMK A01 T00900009  RH  057%=      5-min Rain = 0
KCO1 121716Z 15006KT 09/01 A3025 RMK A01 T00910008  RH  056%=      5-min Rain = 0
KCO1 121717Z 12006KT 09/01 A3025 RMK A01 T00910008  RH  056%=      5-min Rain = 0
KCO1 121718Z 12007KT 09/01 A3025 RMK A01 T00920011  RH  057%=      5-min Rain = 0
KCO1 121719Z 13006KT 09/01 A3025 RMK A01 T00930010  RH  056%=      5-min Rain = 0
KCO1 121720Z 13004KT 09/01 A3025 RMK A01 T00930011  RH  057%=      5-min Rain = 0
KCO1 121721Z 14006KT 10/01 A3025 RMK A01 T00950013  RH  056%=      5-min Rain = 0
KCO1 121722Z 13006KT 10/01 A3025 RMK A01 T00960011  RH  055%=      5-min Rain = 0
KCO1 121723Z 15006KT 10/01 A3025 RMK A01 T00960011  RH  055%=      5-min Rain = 0
KCO1 121724Z 14006KT 10/01 A3024 RMK A01 T00960010  RH  055%=      5-min Rain = 0
KCO1 121725Z 14006KT 10/01 A3024 RMK A01 T00960011  RH  055%=      5-min Rain = 0
KCO1 121726Z 16006KT 10/01 A3024 RMK A01 T00970012  RH  055%=      5-min Rain = 0
KCO1 121727Z 15005KT 10/01 A3024 RMK A01 T00980011  RH  055%=      5-min Rain = 0
KCO1 121728Z 14006KT 10/01 A3024 RMK A01 T00990014  RH  056%=      5-min Rain = 0
KCO1 121729Z 14006KT 10/01 A3024 RMK A01 T01010014  RH  055%=      5-min Rain = 0
KCO1 121730Z 15005KT 10/01 A3024 RMK A01 T01030014  RH  054%=      5-min Rain = 0
KCO1 121731Z 16006KT 10/02 A3024 RMK A01 T01040015  RH  054%=      5-min Rain = 0
KCO1 121732Z 15006KT 11/01 A3024 RMK A01 T01060014  RH  053%=      5-min Rain = 0
KCO1 121733Z 17005KT 11/01 A3024 RMK A01 T01060011  RH  052%=      5-min Rain = 0
KCO1 121734Z 15004KT 11/01 A3024 RMK A01 T01050011  RH  052%=      5-min Rain = 0
KCO1 121735Z 13005KT 11/01 A3024 RMK A01 T01050013  RH  053%=      5-min Rain = 0
KCO1 121736Z 14005KT 11/01 A3024 RMK A01 T01050012  RH  052%=      5-min Rain = 0
KCO1 121737Z 15005KT 11/01 A3024 RMK A01 T01060012  RH  052%=      5-min Rain = 0
KCO1 121738Z 14004KT 11/01 A3024 RMK A01 T01070014  RH  053%=      5-min Rain = 0
KCO1 121739Z 16004KT 11/02 A3024 RMK A01 T01090015  RH  052%=      5-min Rain = 0
KCO1 121740Z 15005KT 11/01 A3023 RMK A01 T01100013  RH  051%=      5-min Rain = 0
KCO1 121741Z 14005KT 11/01 A3023 RMK A01 T01100012  RH  051%=      5-min Rain = 0
KCO1 121742Z 17005KT 11/01 A3023 RMK A01 T01100012  RH  051%=      5-min Rain = 0
KCO1 121743Z 18004KT 11/01 A3023 RMK A01 T01110011  RH  050%=      5-min Rain = 0
KCO1 121744Z 16006KT 11/01 A3023 RMK A01 T01110010  RH  050%=      5-min Rain = 0
KCO1 121745Z 15005KT 11/01 A3023 RMK A01 T01110009  RH  050%=      5-min Rain = 0
KCO1 121746Z 14004KT 11/01 A3023 RMK A01 T01120012  RH  050%=      5-min Rain = 0
KCO1 121747Z 16005KT 11/01 A3023 RMK A01 T01130012  RH  050%=      5-min Rain = 0
KCO1 121748Z 17004KT 11/01 A3023 RMK A01 T01130010  RH  049%=      5-min Rain = 0
KCO1 121749Z 16004KT 11/01 A3023 RMK A01 T01120009  RH  049%=      5-min Rain = 0
KCO1 121750Z 14003KT 11/01 A3023 RMK A01 T01120008  RH  049%=      5-min Rain = 0
KCO1 121751Z 14001KT 11/01 A3023 RMK A01 T01120009  RH  049%=      5-min Rain = 0
KCO1 121752Z 14004KT 11/01 A3023 RMK A01 T01140010  RH  049%=      5-min Rain = 0
KCO1 121753Z 11002KT 11/01 A3023 RMK A01 T01140008  RH  048%=      5-min Rain = 0
KCO1 121754Z 09002KT 11/01 A3023 RMK A01 T01140007  RH  048%=      5-min Rain = 0
KCO1 121755Z 15002KT 12/01 A3023 RMK A01 T01150007  RH  048%=      5-min Rain = 0
KCO1 121756Z 15003KT 12/01 A3023 RMK A01 T01160010  RH  048%=      5-min Rain = 0
KCO1 121757Z 16004KT 12/01 A3023 RMK A01 T01170012  RH  048%=      5-min Rain = 0
KCO1 121758Z 17003KT 12/01 A3022 RMK A01 T01180010  RH  048%=      5-min Rain = 0
KCO1 121759Z 17004KT 12/01 A3022 RMK A01 T01160010  RH  048%=      5-min Rain = 0
KCO1 121800Z 18004KT 12/01 A3022 RMK A01 T01160010  RH  048%=      5-min Rain = 0
KCO1 121801Z 19003KT 12/01 A3022 RMK A01 T01160009  RH  048%=      5-min Rain = 0
KCO1 121802Z 20003KT 12/01 A3022 RMK A01 T01160009  RH  048%=      5-min Rain = 0
KCO1 121803Z 19003KT 12/01 A3022 RMK A01 T01160009  RH  048%=      5-min Rain = 0
KCO1 121804Z 21002KT 12/01 A3022 RMK A01 T01170010  RH  048%=      5-min Rain = 0
KCO1 121805Z 20004KT 12/01 A3022 RMK A01 T01190013  RH  048%=      5-min Rain = 0
KCO1 121806Z 22005KT 12/01 A3022 RMK A01 T01210012  RH  047%=      5-min Rain = 0
KCO1 121807Z 24004KT 12/01 A3022 RMK A01 T01200009  RH  047%=      5-min Rain = 0
KCO1 121808Z 23002KT 12/01 A3021 RMK A01 T01200009  RH  047%=      5-min Rain = 0
KCO1 121809Z 17002KT 12/01 A3021 RMK A01 T01200008  RH  046%=      5-min Rain = 0
KCO1 121810Z 22004KT 12/01 A3021 RMK A01 T01210009  RH  046%=      5-min Rain = 0
KCO1 121811Z 19003KT 12/01 A3021 RMK A01 T01220009  RH  046%=      5-min Rain = 0
KCO1 121812Z 18004KT 12/01 A3021 RMK A01 T01220010  RH  046%=      5-min Rain = 0
KCO1 121813Z 18004KT 12/01 A3021 RMK A01 T01240011  RH  046%=      5-min Rain = 0
KCO1 121814Z 17004KT 13/01 A3021 RMK A01 T01250009  RH  045%=      5-min Rain = 0
KCO1 121815Z 21004KT 13/01 A302 RMK A01 T01260010  RH  045%=      5-min Rain = 0
KCO1 121816Z 19003KT 13/01 A302 RMK A01 T01260011  RH  045%=      5-min Rain = 0
KCO1 121817Z 15002KT 13/01 A302 RMK A01 T01260011  RH  045%=      5-min Rain = 0
KCO1 121818Z 15002KT 13/01 A302 RMK A01 T01260008  RH  044%=      5-min Rain = 0
KCO1 121819Z 18002KT 13/01 A302 RMK A01 T01270007  RH  044%=      5-min Rain = 0
KCO1 121820Z 16001KT 13/01 A302 RMK A01 T01270009  RH  045%=      5-min Rain = 0
KCO1 121821Z 14002KT 13/01 A302 RMK A01 T01280008  RH  044%=      5-min Rain = 0
KCO1 121822Z 15001KT 13/01 A302 RMK A01 T01290008  RH  044%=      5-min Rain = 0
KCO1 121823Z 21004KT 13/01 A302 RMK A01 T01290008  RH  043%=      5-min Rain = 0
KCO1 121824Z 20004KT 13/01 A3019 RMK A01 T01290005  RH  043%=      5-min Rain = 0
KCO1 121825Z 20004KT 13/00 A3019 RMK A01 T01270004  RH  043%=      5-min Rain = 0
KCO1 121826Z 20003KT 13/01 A3019 RMK A01 T01250005  RH  043%=      5-min Rain = 0
KCO1 121827Z 22003KT 13/00 A3019 RMK A01 T01260004  RH  043%=      5-min Rain = 0
KCO1 121828Z 24002KT 13/00 A3019 RMK A01 T01260003  RH  043%=      5-min Rain = 0
KCO1 121829Z 27001KT 13/00 A3019 RMK A01 T01270003  RH  043%=      5-min Rain = 0
KCO1 121830Z 33001KT 13/00 A3019 RMK A01 T01260002  RH  042%=      5-min Rain = 0
KCO1 121831Z 00001KT 13/00 A3019 RMK A01 T01260001  RH  042%=      5-min Rain = 0
KCO1 121832Z 03001KT 13/00 A3019 RMK A01 T01260001  RH  042%=      5-min Rain = 0
KCO1 121833Z 05001KT 13/00 A3019 RMK A01 T01270003  RH  043%=      5-min Rain = 0
KCO1 121834Z 10001KT 13/01 A3019 RMK A01 T01290005  RH  043%=      5-min Rain = 0
KCO1 121835Z 12002KT 13/01 A3019 RMK A01 T01310005  RH  042%=      5-min Rain = 0
KCO1 121836Z 16002KT 13/01 A3018 RMK A01 T01330008  RH  042%=      5-min Rain = 0
KCO1 121837Z 19003KT 14/01 A3018 RMK A01 T01350008  RH  042%=      5-min Rain = 0
KCO1 121838Z 18003KT 14/00 A3018 RMK A01 T01370004  RH  040%=      5-min Rain = 0
KCO1 121839Z 23004KT 14/00 A3018 RMK A01 T01370003  RH  040%=      5-min Rain = 0
KCO1 121840Z 20004KT 14/00 A3018 RMK A01 T01360003  RH  040%=      5-min Rain = 0
KCO1 121841Z 20003KT 14/01 A3018 RMK A01 T01360005  RH  041%=      5-min Rain = 0
KCO1 121842Z 21002KT 14/01 A3018 RMK A01 T01350005  RH  041%=      5-min Rain = 0
KCO1 121843Z 21003KT 14/00 A3018 RMK A01 T01350004  RH  041%=      5-min Rain = 0
KCO1 121844Z 22002KT 14/01 A3018 RMK A01 T01360005  RH  041%=      5-min Rain = 0
KCO1 121845Z 19002KT 14/00 A3018 RMK A01 T01360003  RH  040%=      5-min Rain = 0
KCO1 121846Z 16002KT 14/00 A3018 RMK A01 T01360003  RH  040%=      5-min Rain = 0
KCO1 121847Z 12001KT 14/01 A3018 RMK A01 T01370005  RH  040%=      5-min Rain = 0
KCO1 121848Z 10001KT 14/00 A3018 RMK A01 T01380003  RH  040%=      5-min Rain = 0
KCO1 121849Z 06001KT 14/01 A3018 RMK A01 T01400007  RH  040%=      5-min Rain = 0
KCO1 121850Z 15001KT 14/01 A3018 RMK A01 T01430009  RH  040%=      5-min Rain = 0
KCO1 121851Z 23003KT 15/01 A3017 RMK A01 T01450009  RH  039%=      5-min Rain = 0
KCO1 121852Z 22005KT 15/00 A3017 RMK A01 T01450003  RH  038%=      5-min Rain = 0
KCO1 121853Z 21005KT 14/00 A3017 RMK A01 T01420001  RH  038%=      5-min Rain = 0
KCO1 121854Z 22004KT 14/00 A3017 RMK A01 T01410002  RH  039%=      5-min Rain = 0
KCO1 121855Z 24003KT 14/00 A3017 RMK A01 T01400000  RH  038%=      5-min Rain = 0
KCO1 121856Z 24004KT 14/00 A3017 RMK A01 T01400001  RH  038%=      5-min Rain = 0
KCO1 121857Z 21004KT 14/00 A3017 RMK A01 T01400002  RH  039%=      5-min Rain = 0
KCO1 121858Z 22003KT 14/00 A3017 RMK A01 T01390002  RH  039%=      5-min Rain = 0
KCO1 121859Z 23003KT 14/00 A3017 RMK A01 T01390003  RH  039%=      5-min Rain = 0
KCO1 121900Z 25001KT 14/00 A3017 RMK A01 T01390002  RH  039%=      5-min Rain = 0
KCO1 121901Z 18001KT 14/00 A3017 RMK A01 T01400001  RH  039%=      5-min Rain = 0
KCO1 121902Z 17001KT 14/00 A3016 RMK A01 T01410003  RH  039%=      5-min Rain = 0
KCO1 121903Z 13002KT 14/00 A3016 RMK A01 T01420003  RH  039%=      5-min Rain = 0
KCO1 121904Z 31001KT 14/00 A3016 RMK A01 T01430004  RH  038%=      5-min Rain = 0
KCO1 121905Z 27002KT 14/00 A3016 RMK A01 T01440003  RH  038%=      5-min Rain = 0
KCO1 121906Z 23003KT 14/00 A3016 RMK A01 T01440003  RH  038%=      5-min Rain = 0
KCO1 121907Z 19004KT 14/00 A3016 RMK A01 T01440002  RH  038%=      5-min Rain = 0
KCO1 121908Z 20005KT 15/00 A3016 RMK A01 T01450002  RH  038%=      5-min Rain = 0
KCO1 121909Z 19006KT 15/00 A3016 RMK A01 T01450000  RH  037%=      5-min Rain = 0
KCO1 121910Z 19005KT 15/00 A3016 RMK A01 T01450000  RH  037%=      5-min Rain = 0
KCO1 121911Z 20002KT 14/M00 A3015 RMK A01 T01441002  RH  037%=      5-min Rain = 0
KCO1 121912Z 23003KT 14/M00 A3015 RMK A01 T01441001  RH  037%=      5-min Rain = 0
KCO1 121913Z 23006KT 14/M00 A3015 RMK A01 T01441003  RH  036%=      5-min Rain = 0
KCO1 121914Z 25005KT 15/M00 A3015 RMK A01 T01451001  RH  037%=      5-min Rain = 0
KCO1 121915Z 25004KT 15/00 A3015 RMK A01 T014600-0  RH  037%=      5-min Rain = 0
KCO1 121916Z 23004KT 15/00 A3015 RMK A01 T014600-0  RH  037%=      5-min Rain = 0
KCO1 121917Z 23004KT 15/M00 A3015 RMK A01 T01471002  RH  036%=      5-min Rain = 0
KCO1 121918Z 25003KT 15/M00 A3015 RMK A01 T01471003  RH  036%=      5-min Rain = 0
KCO1 121919Z 25004KT 15/M00 A3015 RMK A01 T01471001  RH  036%=      5-min Rain = 0
KCO1 121920Z 24004KT 15/M00 A3015 RMK A01 T01461001  RH  036%=      5-min Rain = 0
KCO1 121921Z 23003KT 15/M00 A3015 RMK A01 T01471002  RH  036%=      5-min Rain = 0
KCO1 121922Z 23004KT 15/00 A3014 RMK A01 T01480000  RH  036%=      5-min Rain = 0
KCO1 121923Z 22004KT 15/00 A3014 RMK A01 T01500004  RH  037%=      5-min Rain = 0
KCO1 121924Z 21003KT 15/00 A3014 RMK A01 T01520000  RH  035%=      5-min Rain = 0
KCO1 121925Z 22003KT 15/M00 A3014 RMK A01 T01521001  RH  035%=      5-min Rain = 0
KCO1 121926Z 18003KT 15/01 A3014 RMK A01 T01530005  RH  036%=      5-min Rain = 0
KCO1 121927Z 17005KT 15/00 A3014 RMK A01 T01540002  RH  035%=      5-min Rain = 0
KCO1 121928Z 18005KT 15/00 A3014 RMK A01 T01540001  RH  035%=      5-min Rain = 0
KCO1 121929Z 19005KT 15/M00 A3014 RMK A01 T01541001  RH  035%=      5-min Rain = 0
KCO1 121930Z 20004KT 15/M00 A3014 RMK A01 T01521003  RH  035%=      5-min Rain = 0
KCO1 121931Z 20002KT 15/M00 A3014 RMK A01 T01511002  RH  035%=      5-min Rain = 0
KCO1 121932Z 17004KT 15/M00 A3014 RMK A01 T01521002  RH  035%=      5-min Rain = 0
KCO1 121933Z 18003KT 15/M00 A3014 RMK A01 T01531001  RH  035%=      5-min Rain = 0
KCO1 121934Z 17004KT 15/M00 A3013 RMK A01 T01541002  RH  035%=      5-min Rain = 0
KCO1 121935Z 17004KT 15/M00 A3013 RMK A01 T01541001  RH  035%=      5-min Rain = 0
KCO1 121936Z 19004KT 16/00 A3013 RMK A01 T01550001  RH  035%=      5-min Rain = 0
KCO1 121937Z 20002KT 15/M00 A3013 RMK A01 T01541002  RH  035%=      5-min Rain = 0
KCO1 121938Z 20001KT 15/M00 A3013 RMK A01 T01531002  RH  035%=      5-min Rain = 0
KCO1 121939Z 27000KT 16/M00 A3013 RMK A01 T01551002  RH  034%=      5-min Rain = 0
KCO1 121940Z 17002KT 16/00 A3013 RMK A01 T015800-0  RH  034%=      5-min Rain = 0
KCO1 121941Z 16003KT 16/M00 A3013 RMK A01 T01601001  RH  033%=      5-min Rain = 0
KCO1 121942Z 17004KT 16/M00 A3013 RMK A01 T01611002  RH  033%=      5-min Rain = 0
KCO1 121943Z 21002KT 16/M00 A3013 RMK A01 T01621002  RH  033%=      5-min Rain = 0
KCO1 121944Z 26002KT 16/M00 A3013 RMK A01 T01621002  RH  033%=      5-min Rain = 0
KCO1 121945Z 27005KT 16/M00 A3013 RMK A01 T01621002  RH  033%=      5-min Rain = 0
KCO1 121946Z 28004KT 16/M01 A3013 RMK A01 T01601005  RH  033%=      5-min Rain = 0
KCO1 121947Z 30002KT 16/M01 A3013 RMK A01 T01581005  RH  033%=      5-min Rain = 0
KCO1 121948Z 26003KT 16/M00 A3013 RMK A01 T01571004  RH  033%=      5-min Rain = 0
KCO1 121949Z 27005G10KT 16/M00 A3013 RMK A01 T01581004  RH  033%=      5-min Rain = 0
KCO1 121950Z 30003KT 16/M00 A3013 RMK A01 T01591001  RH  034%=      5-min Rain = 0
KCO1 121951Z 27003KT 16/M00 A3013 RMK A01 T01591004  RH  033%=      5-min Rain = 0
KCO1 121952Z 26002KT 16/M01 A3013 RMK A01 T01591007  RH  032%=      5-min Rain = 0
KCO1 121953Z 27005KT 16/M01 A3012 RMK A01 T01581006  RH  032%=      5-min Rain = 0
KCO1 121954Z 27005KT 16/M01 A3012 RMK A01 T01591006  RH  032%=      5-min Rain = 0
KCO1 121955Z 27007KT 16/M01 A3012 RMK A01 T01591006  RH  032%=      5-min Rain = 0
KCO1 121956Z 27004KT 16/M01 A3012 RMK A01 T01591006  RH  032%=      5-min Rain = 0
KCO1 121957Z 28005KT 16/M01 A3012 RMK A01 T01591005  RH  033%=      5-min Rain = 0
KCO1 121958Z 26005KT 16/M01 A3012 RMK A01 T01581006  RH  033%=      5-min Rain = 0
KCO1 121959Z 26005KT 16/M00 A3012 RMK A01 T01601001  RH  033%=      5-min Rain = 0
KCO1 122000Z 24003KT 16/M00 A3012 RMK A01 T01621003  RH  032%=      5-min Rain = 0
KCO1 122001Z 25003KT 16/M00 A3012 RMK A01 T01621003  RH  032%=      5-min Rain = 0
KCO1 122002Z 28003KT 16/M00 A3012 RMK A01 T01641002  RH  032%=      5-min Rain = 0
KCO1 122003Z 27004KT 17/M00 A3012 RMK A01 T01651002  RH  032%=      5-min Rain = 0
KCO1 122004Z 29005KT 17/M00 A3012 RMK A01 T01651002  RH  032%=      5-min Rain = 0
KCO1 122005Z 28005KT 17/M00 A3012 RMK A01 T01651002  RH  032%=      5-min Rain = 0
KCO1 122006Z 28005KT 16/M00 A3012 RMK A01 T01641003  RH  032%=      5-min Rain = 0
KCO1 122007Z 29003KT 16/M01 A3012 RMK A01 T01631005  RH  032%=      5-min Rain = 0
KCO1 122008Z 30005KT 16/M00 A3011 RMK A01 T01631004  RH  032%=      5-min Rain = 0
KCO1 122009Z 28006KT 16/M00 A3011 RMK A01 T01631004  RH  032%=      5-min Rain = 0
KCO1 122010Z 25006KT 16/M01 A3011 RMK A01 T01631006  RH  032%=      5-min Rain = 0
KCO1 122011Z 27004KT 16/M01 A3011 RMK A01 T01631006  RH  032%=      5-min Rain = 0
KCO1 122012Z 27004KT 16/M01 A3011 RMK A01 T01641006  RH  031%=      5-min Rain = 0
KCO1 122013Z 28003KT 16/M01 A3011 RMK A01 T01631007  RH  031%=      5-min Rain = 0
KCO1 122014Z 27004KT 16/M01 A3011 RMK A01 T01631005  RH  032%=      5-min Rain = 0
KCO1 122015Z 24005KT 16/M01 A3011 RMK A01 T01641005  RH  032%=      5-min Rain = 0
KCO1 122016Z 23004KT 17/M01 A3011 RMK A01 T01661007  RH  031%=      5-min Rain = 0
KCO1 122017Z 26004KT 17/M00 A3011 RMK A01 T01671002  RH  032%=      5-min Rain = 0
KCO1 122018Z 26005KT 17/M01 A3011 RMK A01 T01691005  RH  031%=      5-min Rain = 0
KCO1 122019Z 27006KT 17/M00 A3011 RMK A01 T01701003  RH  031%=      5-min Rain = 0
KCO1 122020Z 28007KT 17/M00 A3011 RMK A01 T01711003  RH  031%=      5-min Rain = 0
KCO1 122021Z 29006KT 17/M01 A3011 RMK A01 T01701007  RH  030%=      5-min Rain = 0
KCO1 122022Z 31006KT 17/M01 A3011 RMK A01 T01671009  RH  030%=      5-min Rain = 0
KCO1 122023Z 30006KT 17/M01 A3011 RMK A01 T01661007  RH  031%=      5-min Rain = 0
KCO1 122024Z 31004KT 17/M01 A3011 RMK A01 T01661007  RH  031%=      5-min Rain = 0
KCO1 122025Z 32004KT 17/M01 A3011 RMK A01 T01661007  RH  031%=      5-min Rain = 0
KCO1 122026Z 28003KT 17/M01 A3011 RMK A01 T01651006  RH  031%=      5-min Rain = 0
KCO1 122027Z 26005KT 17/M01 A3011 RMK A01 T01661006  RH  031%=      5-min Rain = 0
KCO1 122028Z 27007KT 17/M01 A3011 RMK A01 T01681005  RH  031%=      5-min Rain = 0
KCO1 122029Z 28004KT 17/M01 A3011 RMK A01 T01681008  RH  030%=      5-min Rain = 0
KCO1 122030Z 30004KT 17/M01 A3011 RMK A01 T01671007  RH  030%=      5-min Rain = 0
KCO1 122031Z 31006KT 17/M00 A3011 RMK A01 T01681004  RH  031%=      5-min Rain = 0
KCO1 122032Z 31005KT 17/M01 A3011 RMK A01 T01701007  RH  030%=      5-min Rain = 0
KCO1 122033Z 31004KT 17/M01 A3011 RMK A01 T01691008  RH  030%=      5-min Rain = 0
KCO1 122034Z 32005KT 17/M01 A3011 RMK A01 T01691006  RH  030%=      5-min Rain = 0
KCO1 122035Z 33003KT 17/M01 A3011 RMK A01 T01691006  RH  030%=      5-min Rain = 0
KCO1 122036Z 31004KT 17/M01 A3011 RMK A01 T01681007  RH  030%=      5-min Rain = 0
KCO1 122037Z 30005KT 17/M01 A3011 RMK A01 T01691008  RH  030%=      5-min Rain = 0
KCO1 122038Z 27004KT 17/M01 A3011 RMK A01 T01701008  RH  030%=      5-min Rain = 0
KCO1 122039Z 27004KT 17/M01 A3011 RMK A01 T01711006  RH  030%=      5-min Rain = 0
KCO1 122040Z 27003KT 17/M01 A3011 RMK A01 T01731007  RH  030%=      5-min Rain = 0
KCO1 122041Z 29006KT 17/M01 A3011 RMK A01 T01731007  RH  029%=      5-min Rain = 0
KCO1 122042Z 29007KT 17/M01 A3011 RMK A01 T01741007  RH  029%=      5-min Rain = 0
KCO1 122043Z 27007KT 17/M01 A3011 RMK A01 T01741009  RH  029%=      5-min Rain = 0
KCO1 122044Z 27005KT 17/M01 A3011 RMK A01 T01721009  RH  029%=      5-min Rain = 0
KCO1 122045Z 26003KT 17/M01 A3011 RMK A01 T01711008  RH  029%=      5-min Rain = 0
KCO1 122046Z 26004KT 17/M01 A3011 RMK A01 T01721008  RH  030%=      5-min Rain = 0
KCO1 122047Z 27004KT 17/M01 A3011 RMK A01 T01731007  RH  029%=      5-min Rain = 0
KCO1 122048Z 28004KT 17/M01 A3011 RMK A01 T01731006  RH  030%=      5-min Rain = 0
KCO1 122049Z 32006KT 17/M01 A301 RMK A01 T01741005  RH  030%=      5-min Rain = 0
KCO1 122050Z 31005KT 17/M01 A301 RMK A01 T01741007  RH  029%=      5-min Rain = 0
KCO1 122051Z 30002KT 17/M01 A301 RMK A01 T01731009  RH  029%=      5-min Rain = 0
KCO1 122052Z 25003KT 17/M01 A301 RMK A01 T01731006  RH  030%=      5-min Rain = 0
KCO1 122053Z 29003KT 18/M01 A301 RMK A01 T01751008  RH  029%=      5-min Rain = 0
KCO1 122054Z 29004KT 18/M01 A301 RMK A01 T01751007  RH  029%=      5-min Rain = 0
KCO1 122055Z 31006KT 18/M01 A301 RMK A01 T01751006  RH  029%=      5-min Rain = 0
KCO1 122056Z 33006KT 18/M01 A301 RMK A01 T01751006  RH  029%=      5-min Rain = 0
KCO1 122057Z 31005KT 18/M01 A301 RMK A01 T01751008  RH  029%=      5-min Rain = 0
KCO1 122058Z 30005KT 17/M01 A301 RMK A01 T01741007  RH  029%=      5-min Rain = 0
KCO1 122059Z 32004KT 17/M01 A301 RMK A01 T01741009  RH  029%=      5-min Rain = 0
KCO1 122100Z 31005KT 17/M01 A301 RMK A01 T01741009  RH  029%=      5-min Rain = 0
KCO1 122101Z 29004KT 17/M01 A301 RMK A01 T01741007  RH  029%=      5-min Rain = 0
KCO1 122102Z 27003KT 17/M01 A301 RMK A01 T01741008  RH  029%=      5-min Rain = 0
KCO1 122103Z 25003KT 17/M01 A301 RMK A01 T01741009  RH  029%=      5-min Rain = 0
KCO1 122104Z 24002KT 17/M01 A301 RMK A01 T01741007  RH  029%=      5-min Rain = 0
KCO1 122105Z 23002KT 18/M01 A301 RMK A01 T01751008  RH  029%=      5-min Rain = 0
KCO1 122106Z 18000KT 18/M01 A301 RMK A01 T01761009  RH  029%=      5-min Rain = 0
KCO1 122107Z 14001KT 18/M01 A301 RMK A01 T01771008  RH  028%=      5-min Rain = 0
KCO1 122108Z 11000KT 18/M01 A301 RMK A01 T01791009  RH  028%=      5-min Rain = 0
KCO1 122109Z 30001KT 18/M01 A301 RMK A01 T01811007  RH  028%=      5-min Rain = 0
KCO1 122110Z 26001KT 18/M01 A301 RMK A01 T01821007  RH  028%=      5-min Rain = 0
KCO1 122111Z 25002KT 18/M01 A301 RMK A01 T01831007  RH  028%=      5-min Rain = 0
KCO1 122112Z 32003KT 18/M01 A301 RMK A01 T01831008  RH  027%=      5-min Rain = 0
KCO1 122113Z 33003KT 18/M01 A301 RMK A01 T01821008  RH  028%=      5-min Rain = 0
KCO1 122114Z 30005KT 18/M01 A301 RMK A01 T01811009  RH  028%=      5-min Rain = 0
KCO1 122115Z 30007KT 18/M01 A3009 RMK A01 T01791010  RH  028%=      5-min Rain = 0
KCO1 122116Z 30007KT 18/M01 A3009 RMK A01 T01771011  RH  028%=      5-min Rain = 0
KCO1 122117Z 31005KT 18/M01 A301 RMK A01 T01751012  RH  028%=      5-min Rain = 0
KCO1 122118Z 32004KT 17/M01 A301 RMK A01 T01741011  RH  028%=      5-min Rain = 0
KCO1 122119Z 32004KT 18/M01 A301 RMK A01 T01751008  RH  029%=      5-min Rain = 0
KCO1 122120Z 33004KT 18/M01 A3009 RMK A01 T01771009  RH  028%=      5-min Rain = 0
KCO1 122121Z 31005KT 18/M01 A3009 RMK A01 T01771010  RH  028%=      5-min Rain = 0
KCO1 122122Z 31004KT 18/M01 A3009 RMK A01 T01761010  RH  028%=      5-min Rain = 0
KCO1 122123Z 31004KT 18/M01 A301 RMK A01 T01761009  RH  029%=      5-min Rain = 0
KCO1 122124Z 33004KT 18/M01 A301 RMK A01 T01771008  RH  028%=      5-min Rain = 0
KCO1 122125Z 32004KT 18/M01 A301 RMK A01 T01781010  RH  028%=      5-min Rain = 0
KCO1 122126Z 32005KT 18/M01 A301 RMK A01 T01781011  RH  028%=      5-min Rain = 0
KCO1 122127Z 32005KT 18/M01 A301 RMK A01 T01781010  RH  028%=      5-min Rain = 0
KCO1 122128Z 33004KT 18/M01 A301 RMK A01 T01781010  RH  028%=      5-min Rain = 0
KCO1 122129Z 32006KT 18/M01 A3009 RMK A01 T01781010  RH  028%=      5-min Rain = 0
KCO1 122130Z 30005KT 18/M01 A301 RMK A01 T01781010  RH  028%=      5-min Rain = 0
KCO1 122131Z 26002KT 18/M01 A301 RMK A01 T01781012  RH  028%=      5-min Rain = 0
KCO1 122132Z 22002KT 18/M01 A3009 RMK A01 T01781011  RH  028%=      5-min Rain = 0
KCO1 122133Z 26002KT 18/M01 A3009 RMK A01 T01811009  RH  028%=      5-min Rain = 0
KCO1 122134Z 29003KT 18/M01 A3009 RMK A01 T01831008  RH  027%=      5-min Rain = 0
KCO1 122135Z 30004KT 18/M01 A3009 RMK A01 T01841008  RH  027%=      5-min Rain = 0
KCO1 122136Z 30002KT 18/M01 A3009 RMK A01 T01831010  RH  027%=      5-min Rain = 0
KCO1 122137Z 34002KT 18/M01 A3009 RMK A01 T01831010  RH  027%=      5-min Rain = 0
KCO1 122138Z 34003KT 18/M01 A3009 RMK A01 T01821010  RH  027%=      5-min Rain = 0
KCO1 122139Z 33003KT 18/M01 A3009 RMK A01 T01811010  RH  027%=      5-min Rain = 0
KCO1 122140Z 32005KT 18/M01 A3009 RMK A01 T01811009  RH  027%=      5-min Rain = 0
KCO1 122141Z 32004KT 18/M01 A3009 RMK A01 T01811010  RH  027%=      5-min Rain = 0
KCO1 122142Z 32003KT 18/M01 A3009 RMK A01 T01801011  RH  027%=      5-min Rain = 0
KCO1 122143Z 31002KT 18/M01 A3009 RMK A01 T01791011  RH  027%=      5-min Rain = 0
KCO1 122144Z 31002KT 18/M01 A3009 RMK A01 T01801012  RH  027%=      5-min Rain = 0
KCO1 122145Z 33001KT 18/M01 A3009 RMK A01 T01801013  RH  027%=      5-min Rain = 0
KCO1 122146Z 28003KT 18/M01 A3009 RMK A01 T01821010  RH  027%=      5-min Rain = 0
KCO1 122147Z 28003KT 18/M01 A3009 RMK A01 T01831011  RH  027%=      5-min Rain = 0
KCO1 122148Z 29003KT 18/M01 A3009 RMK A01 T01831010  RH  027%=      5-min Rain = 0
KCO1 122149Z 27002KT 18/M01 A3009 RMK A01 T01831010  RH  027%=      5-min Rain = 0
KCO1 122150Z 25002KT 18/M01 A3009 RMK A01 T01841010  RH  027%=      5-min Rain = 0
KCO1 122151Z 27001KT 19/M01 A3009 RMK A01 T01851009  RH  027%=      5-min Rain = 0
KCO1 122152Z 31001KT 19/M01 A3009 RMK A01 T01861010  RH  026%=      5-min Rain = 0
KCO1 122153Z 32002KT 19/M01 A3009 RMK A01 T01871010  RH  026%=      5-min Rain = 0
KCO1 122154Z 35003KT 19/M01 A301 RMK A01 T01871007  RH  027%=      5-min Rain = 0
KCO1 122155Z 33001KT 19/M01 A301 RMK A01 T01881006  RH  027%=      5-min Rain = 0
KCO1 122156Z 36005KT 19/M01 A301 RMK A01 T01871010  RH  026%=      5-min Rain = 0
KCO1 122157Z 00004KT 19/M01 A301 RMK A01 T01861012  RH  026%=      5-min Rain = 0
KCO1 122158Z 02003KT 18/M01 A301 RMK A01 T01831013  RH  026%=      5-min Rain = 0
KCO1 122159Z 04002KT 18/M01 A301 RMK A01 T01821014  RH  026%=      5-min Rain = 0
KCO1 122200Z 08001KT 18/M02 A301 RMK A01 T01811015  RH  026%=      5-min Rain = 0
KCO1 122201Z 10000KT 18/M01 A301 RMK A01 T01811014  RH  027%=      5-min Rain = 0
KCO1 122202Z 08001KT 18/M01 A301 RMK A01 T01821012  RH  027%=      5-min Rain = 0
KCO1 122203Z 09001KT 18/M01 A301 RMK A01 T01831014  RH  026%=      5-min Rain = 0
KCO1 122204Z 08001KT 18/M01 A301 RMK A01 T01831014  RH  026%=      5-min Rain = 0
KCO1 122205Z 07001KT 18/M01 A301 RMK A01 T01841013  RH  026%=      5-min Rain = 0
KCO1 122206Z 01001KT 18/M01 A301 RMK A01 T01841013  RH  026%=      5-min Rain = 0
KCO1 122207Z 34002KT 19/M01 A301 RMK A01 T01851013  RH  026%=      5-min Rain = 0
KCO1 122208Z 36002KT 19/M02 A3009 RMK A01 T01851016  RH  026%=      5-min Rain = 0
KCO1 122209Z 35001KT 18/M02 A3009 RMK A01 T01841016  RH  026%=      5-min Rain = 0
KCO1 122210Z 06000KT 18/M02 A3009 RMK A01 T01831015  RH  026%=      5-min Rain = 0
KCO1 122211Z 05000KT 18/M02 A3009 RMK A01 T01841016  RH  026%=      5-min Rain = 0
KCO1 122212Z 03002KT 18/M02 A3009 RMK A01 T01841016  RH  026%=      5-min Rain = 0
KCO1 122213Z 06003KT 18/M01 A3009 RMK A01 T01841012  RH  027%=      5-min Rain = 0
KCO1 122214Z 04003KT 18/M01 A3009 RMK A01 T01841008  RH  027%=      5-min Rain = 0
KCO1 122215Z 04003KT 19/M01 A3009 RMK A01 T01851009  RH  027%=      5-min Rain = 0
KCO1 122216Z 07003KT 18/M01 A3009 RMK A01 T01841011  RH  027%=      5-min Rain = 0
KCO1 122217Z 09004KT 18/M01 A3009 RMK A01 T01841009  RH  027%=      5-min Rain = 0
KCO1 122218Z 08004KT 19/M01 A3009 RMK A01 T01851010  RH  027%=      5-min Rain = 0
KCO1 122219Z 10003KT 18/M01 A3009 RMK A01 T01841013  RH  026%=      5-min Rain = 0
KCO1 122220Z 11002KT 18/M01 A3009 RMK A01 T01841012  RH  027%=      5-min Rain = 0
KCO1 122221Z 10002KT 18/M01 A301 RMK A01 T01841013  RH  026%=      5-min Rain = 0
KCO1 122222Z 10003KT 18/M01 A301 RMK A01 T01841011  RH  027%=      5-min Rain = 0
KCO1 122223Z 11003KT 19/M01 A301 RMK A01 T01851010  RH  027%=      5-min Rain = 0
KCO1 122224Z 12003KT 19/M01 A301 RMK A01 T01851013  RH  026%=      5-min Rain = 0
KCO1 122225Z 12002KT 18/M01 A301 RMK A01 T01841012  RH  026%=      5-min Rain = 0
KCO1 122226Z 09002KT 19/M01 A3009 RMK A01 T01851011  RH  027%=      5-min Rain = 0
KCO1 122227Z 07003KT 19/M01 A3009 RMK A01 T01861010  RH  027%=      5-min Rain = 0
KCO1 122228Z 07002KT 19/M01 A3009 RMK A01 T01861009  RH  027%=      5-min Rain = 0
KCO1 122229Z 05002KT 19/M01 A3009 RMK A01 T01871011  RH  026%=      5-min Rain = 0
KCO1 122230Z 04001KT 19/M01 A3009 RMK A01 T01861012  RH  026%=      5-min Rain = 0
KCO1 122231Z 05002KT 19/M01 A3009 RMK A01 T01851013  RH  026%=      5-min Rain = 0
KCO1 122232Z 07002KT 19/M01 A3009 RMK A01 T01851013  RH  026%=      5-min Rain = 0
KCO1 122233Z 06002KT 19/M01 A3009 RMK A01 T01861011  RH  026%=      5-min Rain = 0
KCO1 122234Z 05002KT 19/M01 A3009 RMK A01 T01861010  RH  027%=      5-min Rain = 0
KCO1 122235Z 05001KT 19/M01 A3009 RMK A01 T01861012  RH  026%=      5-min Rain = 0
KCO1 122236Z 06001KT 19/M01 A3009 RMK A01 T01861013  RH  026%=      5-min Rain = 0
KCO1 122237Z 06000KT 19/M01 A3009 RMK A01 T01861013  RH  026%=      5-min Rain = 0
KCO1 122238Z 11001KT 19/M01 A3009 RMK A01 T01871014  RH  026%=      5-min Rain = 0
KCO1 122239Z 08002KT 19/M01 A3009 RMK A01 T01891012  RH  026%=      5-min Rain = 0
KCO1 122240Z 09002KT 19/M01 A3009 RMK A01 T01901014  RH  025%=      5-min Rain = 0
KCO1 122241Z 08002KT 19/M01 A3009 RMK A01 T01901014  RH  025%=      5-min Rain = 0
KCO1 122242Z 09001KT 19/M01 A3009 RMK A01 T01891014  RH  025%=      5-min Rain = 0
KCO1 122243Z 14002KT 19/M01 A3009 RMK A01 T01891014  RH  025%=      5-min Rain = 0
KCO1 122244Z 14002KT 19/M01 A3009 RMK A01 T01891014  RH  025%=      5-min Rain = 0
KCO1 122245Z 15001KT 19/M01 A3009 RMK A01 T01901014  RH  025%=      5-min Rain = 0
KCO1 122246Z 15001KT 19/M01 A3009 RMK A01 T01911014  RH  025%=      5-min Rain = 0
KCO1 122247Z 14002KT 19/M01 A3009 RMK A01 T01921012  RH  025%=      5-min Rain = 0
KCO1 122248Z 14001KT 19/M01 A3009 RMK A01 T01931012  RH  025%=      5-min Rain = 0
KCO1 122249Z 13002KT 19/M01 A3009 RMK A01 T01941013  RH  025%=      5-min Rain = 0
KCO1 122250Z 12002KT 19/M01 A3009 RMK A01 T01941014  RH  024%=      5-min Rain = 0
KCO1 122251Z 12002KT 19/M01 A3009 RMK A01 T01931014  RH  025%=      5-min Rain = 0
KCO1 122252Z 16002KT 19/M01 A3009 RMK A01 T01921014  RH  025%=      5-min Rain = 0
KCO1 122253Z 13001KT 19/M02 A3009 RMK A01 T01911015  RH  025%=      5-min Rain = 0
KCO1 122254Z 10002KT 19/M02 A3009 RMK A01 T01911015  RH  025%=      5-min Rain = 0
KCO1 122255Z 10002KT 19/M02 A3009 RMK A01 T01901017  RH  025%=      5-min Rain = 0
KCO1 122256Z 11002KT 19/M02 A3009 RMK A01 T01891016  RH  025%=      5-min Rain = 0
KCO1 122257Z 11002KT 19/M02 A3009 RMK A01 T01881016  RH  025%=      5-min Rain = 0
KCO1 122258Z 07003KT 19/M01 A3009 RMK A01 T01881014  RH  026%=      5-min Rain = 0
KCO1 122259Z 05003KT 19/M01 A3009 RMK A01 T01881013  RH  026%=      5-min Rain = 0
KCO1 122300Z 06003KT 19/M01 A3009 RMK A01 T01871013  RH  026%=      5-min Rain = 0
KCO1 122301Z 05003KT 19/M01 A3009 RMK A01 T01861014  RH  026%=      5-min Rain = 0
KCO1 122302Z 05004KT 19/M01 A3009 RMK A01 T01851011  RH  026%=      5-min Rain = 0
KCO1 122303Z 05003KT 18/M01 A3009 RMK A01 T01841013  RH  026%=      5-min Rain = 0
KCO1 122304Z 04003KT 18/M01 A3009 RMK A01 T01831014  RH  026%=      5-min Rain = 0
KCO1 122305Z 07003KT 18/M01 A3009 RMK A01 T01831012  RH  027%=      5-min Rain = 0
KCO1 122306Z 06002KT 18/M01 A3009 RMK A01 T01831012  RH  027%=      5-min Rain = 0
KCO1 122307Z 06002KT 18/M01 A3009 RMK A01 T01831012  RH  027%=      5-min Rain = 0
KCO1 122308Z 06002KT 18/M01 A3009 RMK A01 T01831013  RH  026%=      5-min Rain = 0
KCO1 122309Z 06002KT 18/M01 A3009 RMK A01 T01831013  RH  026%=      5-min Rain = 0
KCO1 122310Z 07002KT 18/M01 A3009 RMK A01 T01831014  RH  026%=      5-min Rain = 0
KCO1 122311Z 08002KT 18/M01 A3009 RMK A01 T01831012  RH  027%=      5-min Rain = 0
KCO1 122312Z 08002KT 18/M01 A3009 RMK A01 T01831013  RH  027%=      5-min Rain = 0
KCO1 122313Z 08002KT 18/M02 A3009 RMK A01 T01831016  RH  026%=      5-min Rain = 0
KCO1 122314Z 08002KT 18/M02 A3009 RMK A01 T01831015  RH  026%=      5-min Rain = 0
KCO1 122315Z 09002KT 18/M02 A3009 RMK A01 T01831015  RH  026%=      5-min Rain = 0
KCO1 122316Z 09002KT 18/M01 A3009 RMK A01 T01831013  RH  027%=      5-min Rain = 0
KCO1 122317Z 07002KT 18/M01 A3009 RMK A01 T01821014  RH  026%=      5-min Rain = 0
KCO1 122318Z 07002KT 18/M01 A3009 RMK A01 T01821013  RH  027%=      5-min Rain = 0
KCO1 122319Z 07002KT 18/M01 A3009 RMK A01 T01821011  RH  027%=      5-min Rain = 0
KCO1 122320Z 05002KT 18/M01 A3009 RMK A01 T01821012  RH  027%=      5-min Rain = 0
KCO1 122321Z 05002KT 18/M01 A301 RMK A01 T01811012  RH  027%=      5-min Rain = 0
KCO1 122322Z 04002KT 18/M02 A301 RMK A01 T01811015  RH  026%=      5-min Rain = 0
KCO1 122323Z 04002KT 18/M02 A301 RMK A01 T01811015  RH  026%=      5-min Rain = 0
KCO1 122324Z 04002KT 18/M02 A301 RMK A01 T01811015  RH  026%=      5-min Rain = 0
KCO1 122325Z 05002KT 18/M01 A301 RMK A01 T01801014  RH  027%=      5-min Rain = 0
KCO1 122326Z 06002KT 18/M02 A3009 RMK A01 T01801015  RH  027%=      5-min Rain = 0
KCO1 122327Z 08002KT 18/M01 A3009 RMK A01 T01801014  RH  027%=      5-min Rain = 0
KCO1 122328Z 09001KT 18/M02 A3009 RMK A01 T01791015  RH  027%=      5-min Rain = 0
KCO1 122329Z 09001KT 18/M02 A3009 RMK A01 T01791015  RH  027%=      5-min Rain = 0
KCO1 122330Z 09001KT 18/M02 A3009 RMK A01 T01801016  RH  027%=      5-min Rain = 0
KCO1 122331Z 09001KT 18/M02 A3009 RMK A01 T01791016  RH  026%=      5-min Rain = 0
KCO1 122332Z 10001KT 18/M02 A3009 RMK A01 T01801015  RH  027%=      5-min Rain = 0
KCO1 122333Z 10001KT 18/M01 A3009 RMK A01 T01801014  RH  027%=      5-min Rain = 0
KCO1 122334Z 10001KT 18/M01 A3009 RMK A01 T01811014  RH  027%=      5-min Rain = 0
KCO1 122335Z 10001KT 18/M01 A3009 RMK A01 T01811013  RH  027%=      5-min Rain = 0
KCO1 122336Z 10001KT 18/M01 A3009 RMK A01 T01811012  RH  027%=      5-min Rain = 0
KCO1 122337Z 10002KT 18/M01 A3009 RMK A01 T01811012  RH  027%=      5-min Rain = 0
KCO1 122338Z 11002KT 18/M01 A3009 RMK A01 T01801013  RH  027%=      5-min Rain = 0
KCO1 122339Z 12002KT 18/M01 A3009 RMK A01 T01791014  RH  027%=      5-min Rain = 0
KCO1 122340Z 12002KT 18/M01 A3009 RMK A01 T01781012  RH  027%=      5-min Rain = 0
KCO1 122341Z 12002KT 18/M01 A3009 RMK A01 T01781011  RH  028%=      5-min Rain = 0
KCO1 122342Z 10002KT 18/M01 A3009 RMK A01 T01771009  RH  028%=      5-min Rain = 0
KCO1 122343Z 09002KT 18/M01 A3009 RMK A01 T01761009  RH  029%=      5-min Rain = 0
KCO1 122344Z 08003KT 18/M01 A3009 RMK A01 T01751008  RH  029%=      5-min Rain = 0
KCO1 122345Z 08003KT 17/M01 A3009 RMK A01 T01741009  RH  029%=      5-min Rain = 0
KCO1 122346Z 08003KT 17/M01 A3009 RMK A01 T01731007  RH  030%=      5-min Rain = 0
KCO1 122347Z 08003KT 17/M01 A3009 RMK A01 T01711007  RH  030%=      5-min Rain = 0
KCO1 122348Z 08003KT 17/M01 A3009 RMK A01 T01701007  RH  030%=      5-min Rain = 0
KCO1 122349Z 08003KT 17/M01 A3009 RMK A01 T01691007  RH  030%=      5-min Rain = 0
KCO1 122350Z 08003KT 17/M01 A3009 RMK A01 T01681007  RH  030%=      5-min Rain = 0
KCO1 122351Z 08003KT 17/M01 A3009 RMK A01 T01671006  RH  031%=      5-min Rain = 0
KCO1 122352Z 08003KT 17/M01 A3009 RMK A01 T01661006  RH  031%=      5-min Rain = 0
KCO1 122353Z 08003KT 17/M01 A3009 RMK A01 T01651006  RH  031%=      5-min Rain = 0
KCO1 122354Z 08004KT 16/M01 A301 RMK A01 T01641006  RH  031%=      5-min Rain = 0
KCO1 122355Z 08003KT 16/M01 A301 RMK A01 T01631006  RH  032%=      5-min Rain = 0
KCO1 122356Z 08004KT 16/M01 A301 RMK A01 T01621006  RH  032%=      5-min Rain = 0
KCO1 122357Z 09004KT 16/M01 A301 RMK A01 T01601006  RH  032%=      5-min Rain = 0
KCO1 122358Z 09004KT 16/M01 A3009 RMK A01 T01581006  RH  033%=      5-min Rain = 0
KCO1 122359Z 09004KT 16/M01 A3009 RMK A01 T01571005  RH  033%=      5-min Rain = 0
KCO1 130000Z 08004KT 16/M00 A301 RMK A01 T01561004  RH  033%=      5-min Rain = 0
KCO1 130001Z 08004KT 15/M01 A301 RMK A01 T01541005  RH  034%=      5-min Rain = 0
KCO1 130002Z 08004KT 15/M01 A301 RMK A01 T01531005  RH  034%=      5-min Rain = 0
KCO1 130003Z 08004KT 15/M01 A301 RMK A01 T01531005  RH  034%=      5-min Rain = 0
KCO1 130004Z 08004KT 15/M01 A301 RMK A01 T01521005  RH  034%=      5-min Rain = 0
KCO1 130005Z 08004KT 15/M01 A301 RMK A01 T01511005  RH  034%=      5-min Rain = 0
KCO1 130006Z 08004KT 15/M01 A301 RMK A01 T01501005  RH  035%=      5-min Rain = 0
KCO1 130007Z 09004KT 15/M01 A301 RMK A01 T01491005  RH  035%=      5-min Rain = 0
KCO1 130008Z 09004KT 15/M01 A301 RMK A01 T01491005  RH  035%=      5-min Rain = 0
KCO1 130009Z 10004KT 15/M01 A301 RMK A01 T01481005  RH  035%=      5-min Rain = 0
KCO1 130010Z 10004KT 15/M00 A301 RMK A01 T01471004  RH  035%=      5-min Rain = 0
KCO1 130011Z 10003KT 15/M01 A301 RMK A01 T01461005  RH  036%=      5-min Rain = 0
KCO1 130012Z 11003KT 14/M00 A301 RMK A01 T01431003  RH  037%=      5-min Rain = 0
KCO1 130013Z 11003KT 14/M00 A301 RMK A01 T01411003  RH  037%=      5-min Rain = 0
KCO1 130014Z 11003KT 14/M00 A301 RMK A01 T01401003  RH  037%=      5-min Rain = 0
KCO1 130015Z 11003KT 14/M00 A301 RMK A01 T01381004  RH  038%=      5-min Rain = 0
KCO1 130016Z 11003KT 14/M00 A301 RMK A01 T01371004  RH  038%=      5-min Rain = 0
KCO1 130017Z 11003KT 14/M00 A301 RMK A01 T01351004  RH  038%=      5-min Rain = 0
KCO1 130018Z 10003KT 13/M00 A301 RMK A01 T01341004  RH  039%=      5-min Rain = 0
KCO1 130019Z 09003KT 13/M00 A301 RMK A01 T01341004  RH  039%=      5-min Rain = 0
KCO1 130020Z 08003KT 13/M01 A301 RMK A01 T01341006  RH  038%=      5-min Rain = 0
KCO1 130021Z 08004KT 14/M01 A301 RMK A01 T01361006  RH  038%=      5-min Rain = 0
KCO1 130022Z 09004KT 14/M01 A301 RMK A01 T01371006  RH  037%=      5-min Rain = 0
KCO1 130023Z 09004KT 14/M01 A301 RMK A01 T01361006  RH  038%=      5-min Rain = 0
KCO1 130024Z 09004KT 14/M01 A301 RMK A01 T01351006  RH  038%=      5-min Rain = 0
KCO1 130025Z 09004KT 13/M01 A301 RMK A01 T01341007  RH  038%=      5-min Rain = 0
KCO1 130026Z 09004KT 13/M01 A301 RMK A01 T01321008  RH  038%=      5-min Rain = 0
KCO1 130027Z 09004KT 13/M01 A3011 RMK A01 T01311008  RH  038%=      5-min Rain = 0
KCO1 130028Z 09004KT 13/M01 A3011 RMK A01 T01311008  RH  038%=      5-min Rain = 0
KCO1 130029Z 09004KT 13/M01 A3011 RMK A01 T01301008  RH  038%=      5-min Rain = 0
KCO1 130030Z 10004KT 13/M01 A3011 RMK A01 T01291008  RH  039%=      5-min Rain = 0
KCO1 130031Z 10004KT 13/M01 A3011 RMK A01 T01281008  RH  039%=      5-min Rain = 0
KCO1 130032Z 10004KT 13/M01 A3011 RMK A01 T01281009  RH  039%=      5-min Rain = 0
KCO1 130033Z 10004KT 13/M01 A3011 RMK A01 T01271010  RH  039%=      5-min Rain = 0
KCO1 130034Z 09004KT 13/M01 A3011 RMK A01 T01271011  RH  039%=      5-min Rain = 0
KCO1 130035Z 09004KT 13/M01 A3011 RMK A01 T01271011  RH  038%=      5-min Rain = 0
KCO1 130036Z 10004KT 13/M01 A3011 RMK A01 T01271011  RH  039%=      5-min Rain = 0
KCO1 130037Z 10004KT 13/M01 A3011 RMK A01 T01271011  RH  038%=      5-min Rain = 0
KCO1 130038Z 10004KT 13/M01 A3011 RMK A01 T01271010  RH  039%=      5-min Rain = 0
KCO1 130039Z 10004KT 13/M01 A3011 RMK A01 T01261009  RH  039%=      5-min Rain = 0
KCO1 130040Z 10004KT 13/M01 A3011 RMK A01 T01251010  RH  039%=      5-min Rain = 0
KCO1 130041Z 10004KT 12/M01 A3011 RMK A01 T01241010  RH  040%=      5-min Rain = 0
KCO1 130042Z 10004KT 12/M01 A3011 RMK A01 T01221011  RH  040%=      5-min Rain = 0
KCO1 130043Z 10004KT 12/M01 A3011 RMK A01 T01211011  RH  040%=      5-min Rain = 0
KCO1 130044Z 11004KT 12/M01 A3011 RMK A01 T01201011  RH  040%=      5-min Rain = 0
KCO1 130045Z 12004KT 12/M01 A3011 RMK A01 T01181011  RH  041%=      5-min Rain = 0
KCO1 130046Z 11004KT 12/M01 A3012 RMK A01 T01161011  RH  041%=      5-min Rain = 0
KCO1 130047Z 11004KT 11/M01 A3012 RMK A01 T01131011  RH  042%=      5-min Rain = 0
KCO1 130048Z 11004KT 11/M01 A3012 RMK A01 T01101011  RH  043%=      5-min Rain = 0
KCO1 130049Z 11004KT 11/M01 A3012 RMK A01 T01091010  RH  044%=      5-min Rain = 0
KCO1 130050Z 10004KT 11/M01 A3012 RMK A01 T01081008  RH  045%=      5-min Rain = 0
KCO1 130051Z 10004KT 11/M01 A3012 RMK A01 T01081007  RH  045%=      5-min Rain = 0
KCO1 130052Z 10004KT 11/M01 A3012 RMK A01 T01101007  RH  044%=      5-min Rain = 0
KCO1 130053Z 10004KT 11/M01 A3012 RMK A01 T01111008  RH  044%=      5-min Rain = 0
KCO1 130054Z 10004KT 11/M01 A3012 RMK A01 T01121007  RH  044%=      5-min Rain = 0
KCO1 130055Z 10004KT 11/M01 A3012 RMK A01 T01121007  RH  044%=      5-min Rain = 0
KCO1 130056Z 10004KT 11/M01 A3012 RMK A01 T01121008  RH  043%=      5-min Rain = 0
KCO1 130057Z 10004KT 11/M01 A3012 RMK A01 T01131009  RH  043%=      5-min Rain = 0
KCO1 130058Z 11004KT 11/M01 A3012 RMK A01 T01121009  RH  043%=      5-min Rain = 0
KCO1 130059Z 11004KT 11/M01 A3012 RMK A01 T01111010  RH  043%=      5-min Rain = 0
KCO1 130100Z 11004KT 11/M01 A3012 RMK A01 T01091010  RH  044%=      5-min Rain = 0
KCO1 130101Z 11005KT 11/M01 A3012 RMK A01 T01071010  RH  044%=      5-min Rain = 0
KCO1 130102Z 12005KT 11/M01 A3012 RMK A01 T01061009  RH  045%=      5-min Rain = 0
KCO1 130103Z 12005KT 10/M01 A3012 RMK A01 T01041009  RH  045%=      5-min Rain = 0
KCO1 130104Z 12005KT 10/M01 A3012 RMK A01 T01041009  RH  046%=      5-min Rain = 0
KCO1 130105Z 12005KT 10/M01 A3012 RMK A01 T01031009  RH  046%=      5-min Rain = 0
KCO1 130106Z 11005KT 10/M01 A3012 RMK A01 T01031009  RH  046%=      5-min Rain = 0
KCO1 130107Z 11005KT 10/M01 A3012 RMK A01 T01021008  RH  046%=      5-min Rain = 0
KCO1 130108Z 11005KT 10/M01 A3012 RMK A01 T01021008  RH  046%=      5-min Rain = 0
KCO1 130109Z 11005KT 10/M01 A3012 RMK A01 T01021008  RH  046%=      5-min Rain = 0
KCO1 130110Z 12006KT 10/M01 A3012 RMK A01 T01021009  RH  046%=      5-min Rain = 0
KCO1 130111Z 12006KT 10/M01 A3012 RMK A01 T01021009  RH  046%=      5-min Rain = 0
KCO1 130112Z 12006KT 10/M01 A3012 RMK A01 T00991009  RH  047%=      5-min Rain = 0
KCO1 130113Z 12006KT 10/M01 A3012 RMK A01 T00981008  RH  048%=      5-min Rain = 0
KCO1 130114Z 12005KT 10/M01 A3012 RMK A01 T00961009  RH  048%=      5-min Rain = 0
KCO1 130115Z 12005KT 10/M01 A3012 RMK A01 T00951010  RH  048%=      5-min Rain = 0
KCO1 130116Z 12005KT 10/M01 A3012 RMK A01 T00951010  RH  048%=      5-min Rain = 0
KCO1 130117Z 12005KT 09/M01 A3012 RMK A01 T00941010  RH  048%=      5-min Rain = 0
KCO1 130118Z 12005KT 10/M01 A3012 RMK A01 T00951009  RH  048%=      5-min Rain = 0
KCO1 130119Z 12005KT 10/M01 A3012 RMK A01 T00951010  RH  048%=      5-min Rain = 0
KCO1 130120Z 12005KT 10/M01 A3012 RMK A01 T00951010  RH  048%=      5-min Rain = 0
KCO1 130121Z 13006KT 10/M01 A3012 RMK A01 T00951010  RH  048%=      5-min Rain = 0
KCO1 130122Z 13006KT 10/M01 A3012 RMK A01 T00951010  RH  048%=      5-min Rain = 0
KCO1 130123Z 13007KT 10/M01 A3012 RMK A01 T00961010  RH  048%=      5-min Rain = 0
KCO1 130124Z 13007KT 10/M01 A3012 RMK A01 T00961009  RH  048%=      5-min Rain = 0
KCO1 130125Z 13007KT 10/M01 A3013 RMK A01 T00971009  RH  048%=      5-min Rain = 0
KCO1 130126Z 14007KT 10/M01 A3013 RMK A01 T00971009  RH  048%=      5-min Rain = 0
KCO1 130127Z 14007KT 10/M01 A3013 RMK A01 T00971009  RH  047%=      5-min Rain = 0
KCO1 130128Z 14007KT 10/M01 A3013 RMK A01 T00971010  RH  047%=      5-min Rain = 0
KCO1 130129Z 14007KT 10/M01 A3013 RMK A01 T00971009  RH  047%=      5-min Rain = 0
KCO1 130130Z 14007KT 10/M01 A3013 RMK A01 T00971009  RH  047%=      5-min Rain = 0
KCO1 130131Z 14007KT 10/M01 A3013 RMK A01 T00971010  RH  047%=      5-min Rain = 0
KCO1 130132Z 14008KT 10/M01 A3013 RMK A01 T00981010  RH  047%=      5-min Rain = 0
KCO1 130133Z 14008KT 10/M01 A3013 RMK A01 T00981010  RH  047%=      5-min Rain = 0
KCO1 130134Z 14008KT 10/M01 A3013 RMK A01 T00981010  RH  047%=      5-min Rain = 0
KCO1 130135Z 14008KT 10/M01 A3013 RMK A01 T00971010  RH  047%=      5-min Rain = 0
KCO1 130136Z 14008KT 10/M01 A3013 RMK A01 T00961011  RH  047%=      5-min Rain = 0
KCO1 130137Z 14008KT 10/M01 A3013 RMK A01 T00951011  RH  048%=      5-min Rain = 0
KCO1 130138Z 14007KT 09/M01 A3013 RMK A01 T00931011  RH  048%=      5-min Rain = 0
KCO1 130139Z 15007KT 09/M01 A3013 RMK A01 T00911011  RH  049%=      5-min Rain = 0
KCO1 130140Z 15006KT 09/M01 A3013 RMK A01 T00881012  RH  049%=      5-min Rain = 0
KCO1 130141Z 15007KT 09/M01 A3013 RMK A01 T00861012  RH  050%=      5-min Rain = 0
KCO1 130142Z 15007KT 08/M01 A3013 RMK A01 T00841013  RH  050%=      5-min Rain = 0
KCO1 130143Z 15007KT 08/M01 A3013 RMK A01 T00831013  RH  051%=      5-min Rain = 0
KCO1 130144Z 14007KT 08/M01 A3013 RMK A01 T00831013  RH  051%=      5-min Rain = 0
KCO1 130145Z 14008KT 08/M01 A3013 RMK A01 T00831013  RH  051%=      5-min Rain = 0
KCO1 130146Z 14008KT 08/M01 A3013 RMK A01 T00831012  RH  051%=      5-min Rain = 0
KCO1 130147Z 14008KT 08/M01 A3013 RMK A01 T00831012  RH  051%=      5-min Rain = 0
KCO1 130148Z 14008KT 08/M01 A3013 RMK A01 T00841012  RH  051%=      5-min Rain = 0
KCO1 130149Z 14008KT 08/M01 A3013 RMK A01 T00841012  RH  051%=      5-min Rain = 0
KCO1 130150Z 14008KT 09/M01 A3013 RMK A01 T00851012  RH  051%=      5-min Rain = 0
KCO1 130151Z 14007KT 09/M01 A3014 RMK A01 T00851011  RH  051%=      5-min Rain = 0
KCO1 130152Z 15006KT 09/M01 A3014 RMK A01 T00851011  RH  051%=      5-min Rain = 0
KCO1 130153Z 15007KT 08/M01 A3014 RMK A01 T00831011  RH  051%=      5-min Rain = 0
KCO1 130154Z 15006KT 08/M01 A3014 RMK A01 T00821011  RH  052%=      5-min Rain = 0
KCO1 130155Z 16006KT 08/M01 A3014 RMK A01 T00801011  RH  052%=      5-min Rain = 0
KCO1 130156Z 15007KT 08/M01 A3014 RMK A01 T00791011  RH  053%=      5-min Rain = 0
KCO1 130157Z 15007KT 08/M01 A3014 RMK A01 T00791012  RH  053%=      5-min Rain = 0
KCO1 130158Z 15008KT 08/M01 A3014 RMK A01 T00791013  RH  052%=      5-min Rain = 0
KCO1 130159Z 15008KT 08/M01 A3014 RMK A01 T00801013  RH  052%=      5-min Rain = 0
KCO1 130200Z 15008KT 08/M01 A3014 RMK A01 T00801012  RH  052%=      5-min Rain = 0
KCO1 130201Z 14008KT 08/M01 A3014 RMK A01 T00811012  RH  052%=      5-min Rain = 0
KCO1 130202Z 14008KT 08/M01 A3014 RMK A01 T00811012  RH  052%=      5-min Rain = 0
KCO1 130203Z 14009KT 08/M01 A3014 RMK A01 T00821012  RH  052%=      5-min Rain = 0
KCO1 130204Z 14008KT 08/M01 A3014 RMK A01 T00821011  RH  052%=      5-min Rain = 0
KCO1 130205Z 14008KT 08/M01 A3014 RMK A01 T00831011  RH  052%=      5-min Rain = 0
KCO1 130206Z 14007KT 08/M01 A3014 RMK A01 T00841010  RH  052%=      5-min Rain = 0
KCO1 130207Z 14006KT 08/M01 A3014 RMK A01 T00841010  RH  052%=      5-min Rain = 0
KCO1 130208Z 14006KT 09/M01 A3014 RMK A01 T00851010  RH  051%=      5-min Rain = 0
KCO1 130209Z 13006KT 09/M01 A3014 RMK A01 T00851010  RH  052%=      5-min Rain = 0
KCO1 130210Z 13006KT 09/M01 A3015 RMK A01 T00851009  RH  052%=      5-min Rain = 0
KCO1 130211Z 13006KT 08/M01 A3015 RMK A01 T00841010  RH  052%=      5-min Rain = 0
KCO1 130212Z 13006KT 08/M01 A3015 RMK A01 T00831010  RH  052%=      5-min Rain = 0
KCO1 130213Z 13006KT 08/M01 A3015 RMK A01 T00831010  RH  052%=      5-min Rain = 0
KCO1 130214Z 13006KT 08/M01 A3015 RMK A01 T00821010  RH  052%=      5-min Rain = 0
KCO1 130215Z 13005KT 08/M01 A3015 RMK A01 T00811010  RH  052%=      5-min Rain = 0
KCO1 130216Z 13005KT 08/M01 A3015 RMK A01 T00811011  RH  053%=      5-min Rain = 0
KCO1 130217Z 13006KT 08/M01 A3015 RMK A01 T00801011  RH  053%=      5-min Rain = 0
KCO1 130218Z 14006KT 08/M01 A3015 RMK A01 T00791011  RH  053%=      5-min Rain = 0
KCO1 130219Z 13006KT 08/M01 A3015 RMK A01 T00781011  RH  053%=      5-min Rain = 0
KCO1 130220Z 13006KT 08/M01 A3015 RMK A01 T00771012  RH  053%=      5-min Rain = 0
KCO1 130221Z 12007KT 08/M01 A3015 RMK A01 T00761012  RH  054%=      5-min Rain = 0
KCO1 130222Z 12007KT 08/M01 A3015 RMK A01 T00751012  RH  054%=      5-min Rain = 0
KCO1 130223Z 12007KT 07/M01 A3016 RMK A01 T00741012  RH  054%=      5-min Rain = 0
KCO1 130224Z 12007KT 07/M01 A3016 RMK A01 T00731012  RH  055%=      5-min Rain = 0
KCO1 130225Z 12007KT 07/M01 A3016 RMK A01 T00731011  RH  055%=      5-min Rain = 0
KCO1 130226Z 12007KT 07/M01 A3016 RMK A01 T00731011  RH  055%=      5-min Rain = 0
KCO1 130227Z 12007KT 07/M01 A3016 RMK A01 T00741011  RH  055%=      5-min Rain = 0
KCO1 130228Z 12006KT 07/M01 A3016 RMK A01 T00741012  RH  054%=      5-min Rain = 0
KCO1 130229Z 12006KT 07/M01 A3016 RMK A01 T00741012  RH  054%=      5-min Rain = 0
KCO1 130230Z 13006KT 07/M01 A3016 RMK A01 T00731013  RH  054%=      5-min Rain = 0
KCO1 130231Z 13006KT 07/M01 A3016 RMK A01 T00721013  RH  055%=      5-min Rain = 0
KCO1 130232Z 13006KT 07/M01 A3016 RMK A01 T00711013  RH  055%=      5-min Rain = 0
KCO1 130233Z 13006KT 07/M01 A3016 RMK A01 T00701013  RH  055%=      5-min Rain = 0
KCO1 130234Z 12006KT 07/M01 A3016 RMK A01 T00691013  RH  056%=      5-min Rain = 0
KCO1 130235Z 13006KT 07/M01 A3016 RMK A01 T00691014  RH  056%=      5-min Rain = 0
KCO1 130236Z 13006KT 07/M01 A3016 RMK A01 T00691014  RH  056%=      5-min Rain = 0
KCO1 130237Z 13007KT 07/M01 A3016 RMK A01 T00691014  RH  056%=      5-min Rain = 0
KCO1 130238Z 12006KT 07/M01 A3016 RMK A01 T00691014  RH  056%=      5-min Rain = 0
KCO1 130239Z 11006KT 07/M01 A3016 RMK A01 T00691014  RH  056%=      5-min Rain = 0
KCO1 130240Z 11006KT 07/M01 A3017 RMK A01 T00681014  RH  056%=      5-min Rain = 0
KCO1 130241Z 11007KT 07/M01 A3017 RMK A01 T00681013  RH  056%=      5-min Rain = 0
KCO1 130242Z 11007KT 07/M01 A3017 RMK A01 T00681014  RH  056%=      5-min Rain = 0
KCO1 130243Z 10006KT 07/M01 A3017 RMK A01 T00681014  RH  056%=      5-min Rain = 0
KCO1 130244Z 10005KT 07/M01 A3017 RMK A01 T00671014  RH  056%=      5-min Rain = 0
KCO1 130245Z 11006KT 07/M02 A3017 RMK A01 T00661015  RH  056%=      5-min Rain = 0
KCO1 130246Z 11007KT 07/M02 A3017 RMK A01 T00661015  RH  056%=      5-min Rain = 0
KCO1 130247Z 11007KT 07/M02 A3017 RMK A01 T00661015  RH  056%=      5-min Rain = 0
KCO1 130248Z 11007KT 07/M02 A3017 RMK A01 T00661015  RH  056%=      5-min Rain = 0
KCO1 130249Z 11007KT 07/M02 A3017 RMK A01 T00661015  RH  056%=      5-min Rain = 0
KCO1 130250Z 11006KT 07/M02 A3017 RMK A01 T00661015  RH  056%=      5-min Rain = 0
KCO1 130251Z 11006KT 07/M02 A3017 RMK A01 T00661015  RH  056%=      5-min Rain = 0
KCO1 130252Z 10007KT 07/M02 A3017 RMK A01 T00661015  RH  056%=      5-min Rain = 0
KCO1 130253Z 10007KT 07/M02 A3017 RMK A01 T00651015  RH  056%=      5-min Rain = 0
KCO1 130254Z 10007KT 07/M02 A3017 RMK A01 T00651015  RH  057%=      5-min Rain = 0
KCO1 130255Z 09006KT 06/M02 A3017 RMK A01 T00641015  RH  057%=      5-min Rain = 0
KCO1 130256Z 11006KT 06/M01 A3017 RMK A01 T00641014  RH  057%=      5-min Rain = 0
KCO1 130257Z 11006KT 06/M01 A3017 RMK A01 T00641014  RH  058%=      5-min Rain = 0
KCO1 130258Z 11006KT 06/M01 A3017 RMK A01 T00631014  RH  058%=      5-min Rain = 0
KCO1 130259Z 11006KT 06/M02 A3017 RMK A01 T00611015  RH  058%=      5-min Rain = 0
KCO1 130300Z 11006KT 06/M02 A3017 RMK A01 T00591015  RH  059%=      5-min Rain = 0
KCO1 130301Z 10006KT 06/M02 A3017 RMK A01 T00581015  RH  059%=      5-min Rain = 0
KCO1 130302Z 09006KT 06/M02 A3017 RMK A01 T00571015  RH  060%=      5-min Rain = 0
KCO1 130303Z 09006KT 06/M02 A3018 RMK A01 T00571015  RH  060%=      5-min Rain = 0
KCO1 130304Z 08005KT 06/M01 A3018 RMK A01 T00571014  RH  060%=      5-min Rain = 0
KCO1 130305Z 09006KT 06/M01 A3018 RMK A01 T00581013  RH  060%=      5-min Rain = 0
KCO1 130306Z 09006KT 06/M01 A3018 RMK A01 T00591013  RH  060%=      5-min Rain = 0
KCO1 130307Z 09006KT 06/M01 A3018 RMK A01 T00591014  RH  059%=      5-min Rain = 0
KCO1 130308Z 09005KT 06/M01 A3018 RMK A01 T00601013  RH  059%=      5-min Rain = 0
KCO1 130309Z 10005KT 06/M01 A3018 RMK A01 T00601013  RH  059%=      5-min Rain = 0
KCO1 130310Z 10005KT 06/M01 A3018 RMK A01 T00601014  RH  059%=      5-min Rain = 0
KCO1 130311Z 10006KT 06/M01 A3018 RMK A01 T00581014  RH  060%=      5-min Rain = 0
KCO1 130312Z 10006KT 06/M02 A3018 RMK A01 T00571015  RH  060%=      5-min Rain = 0
KCO1 130313Z 10006KT 06/M02 A3018 RMK A01 T00551015  RH  060%=      5-min Rain = 0
KCO1 130314Z 10006KT 06/M02 A3018 RMK A01 T00551015  RH  061%=      5-min Rain = 0
KCO1 130315Z 10006KT 05/M02 A3019 RMK A01 T00541015  RH  061%=      5-min Rain = 0
KCO1 130316Z 10006KT 05/M02 A3019 RMK A01 T00541015  RH  061%=      5-min Rain = 0
KCO1 130317Z 10007KT 05/M02 A3018 RMK A01 T00541015  RH  061%=      5-min Rain = 0
KCO1 130318Z 10007KT 05/M02 A3018 RMK A01 T00531016  RH  061%=      5-min Rain = 0
KCO1 130319Z 10007KT 05/M02 A3019 RMK A01 T00531016  RH  061%=      5-min Rain = 0
KCO1 130320Z 10006KT 05/M02 A3019 RMK A01 T00541016  RH  060%=      5-min Rain = 0
KCO1 130321Z 10006KT 06/M02 A3019 RMK A01 T00551016  RH  060%=      5-min Rain = 0
KCO1 130322Z 11006KT 06/M02 A3019 RMK A01 T00561016  RH  060%=      5-min Rain = 0
KCO1 130323Z 11006KT 06/M02 A3019 RMK A01 T00571016  RH  059%=      5-min Rain = 0
KCO1 130324Z 11006KT 06/M02 A3019 RMK A01 T00581016  RH  059%=      5-min Rain = 0
KCO1 130325Z 10006KT 06/M02 A3019 RMK A01 T00581016  RH  059%=      5-min Rain = 0
KCO1 130326Z 10006KT 06/M02 A3019 RMK A01 T00581016  RH  059%=      5-min Rain = 0
KCO1 130327Z 10006KT 06/M02 A3019 RMK A01 T00591016  RH  059%=      5-min Rain = 0
KCO1 130328Z 11006KT 06/M02 A3019 RMK A01 T00591016  RH  059%=      5-min Rain = 0
KCO1 130329Z 11006KT 06/M02 A3019 RMK A01 T00581016  RH  059%=      5-min Rain = 0
KCO1 130330Z 10006KT 06/M02 A3019 RMK A01 T00571016  RH  059%=      5-min Rain = 0
KCO1 130331Z 10006KT 06/M02 A3019 RMK A01 T00561016  RH  060%=      5-min Rain = 0
KCO1 130332Z 11006KT 06/M02 A3019 RMK A01 T00551016  RH  060%=      5-min Rain = 0
KCO1 130333Z 11005KT 06/M02 A3019 RMK A01 T00551016  RH  060%=      5-min Rain = 0
KCO1 130334Z 11005KT 05/M02 A3019 RMK A01 T00541017  RH  060%=      5-min Rain = 0
KCO1 130335Z 11005KT 05/M02 A3019 RMK A01 T00531017  RH  060%=      5-min Rain = 0
KCO1 130336Z 10005KT 05/M02 A3019 RMK A01 T00521018  RH  061%=      5-min Rain = 0
KCO1 130337Z 09005KT 05/M02 A3019 RMK A01 T00521018  RH  061%=      5-min Rain = 0
KCO1 130338Z 09004KT 05/M02 A3019 RMK A01 T00511018  RH  061%=      5-min Rain = 0
KCO1 130339Z 10003KT 05/M02 A3019 RMK A01 T00511018  RH  061%=      5-min Rain = 0
KCO1 130340Z 10002KT 05/M02 A3019 RMK A01 T00511018  RH  061%=      5-min Rain = 0
KCO1 130341Z 12002KT 05/M02 A3019 RMK A01 T00501018  RH  061%=      5-min Rain = 0
KCO1 130342Z 12001KT 05/M02 A3019 RMK A01 T00501019  RH  061%=      5-min Rain = 0
KCO1 130343Z 13001KT 05/M02 A302 RMK A01 T00491019  RH  061%=      5-min Rain = 0
KCO1 130344Z 17001KT 05/M02 A302 RMK A01 T00491019  RH  061%=      5-min Rain = 0
KCO1 130345Z 18002KT 05/M02 A302 RMK A01 T00481020  RH  061%=      5-min Rain = 0
KCO1 130346Z 16002KT 05/M02 A3019 RMK A01 T00481020  RH  061%=      5-min Rain = 0
KCO1 130347Z 13002KT 05/M02 A3019 RMK A01 T00481021  RH  061%=      5-min Rain = 0
KCO1 130348Z 12003KT 05/M02 A302 RMK A01 T00471021  RH  061%=      5-min Rain = 0
KCO1 130349Z 11004KT 05/M02 A302 RMK A01 T00461021  RH  062%=      5-min Rain = 0
KCO1 130350Z 11004KT 05/M02 A302 RMK A01 T00471021  RH  061%=      5-min Rain = 0
KCO1 130351Z 10004KT 05/M02 A302 RMK A01 T00471021  RH  061%=      5-min Rain = 0
KCO1 130352Z 10004KT 05/M02 A302 RMK A01 T00471021  RH  061%=      5-min Rain = 0
KCO1 130353Z 10005KT 05/M02 A302 RMK A01 T00471021  RH  061%=      5-min Rain = 0
KCO1 130354Z 10005KT 05/M02 A302 RMK A01 T00471021  RH  061%=      5-min Rain = 0
KCO1 130355Z 11004KT 05/M02 A302 RMK A01 T00471021  RH  061%=      5-min Rain = 0
KCO1 130356Z 11005KT 05/M02 A302 RMK A01 T00471021  RH  061%=      5-min Rain = 0
KCO1 130357Z 12005KT 05/M02 A302 RMK A01 T00471021  RH  062%=      5-min Rain = 0
KCO1 130358Z 12005KT 05/M02 A302 RMK A01 T00461021  RH  062%=      5-min Rain = 0
KCO1 130359Z 12006KT 05/M02 A302 RMK A01 T00451021  RH  062%=      5-min Rain = 0
KCO1 130400Z 12006KT 04/M02 A302 RMK A01 T00441021  RH  063%=      5-min Rain = 0
KCO1 130401Z 12006KT 04/M02 A302 RMK A01 T00441021  RH  063%=      5-min Rain = 0
KCO1 130402Z 12006KT 04/M02 A302 RMK A01 T00441021  RH  063%=      5-min Rain = 0
KCO1 130403Z 12007KT 04/M02 A302 RMK A01 T00441020  RH  063%=      5-min Rain = 0
KCO1 130404Z 12008KT 04/M02 A302 RMK A01 T00431021  RH  063%=      5-min Rain = 0
KCO1 130405Z 12007KT 04/M02 A302 RMK A01 T00421021  RH  063%=      5-min Rain = 0
KCO1 130406Z 12007KT 04/M02 A302 RMK A01 T00411021  RH  064%=      5-min Rain = 0
KCO1 130407Z 12006KT 04/M02 A302 RMK A01 T00411021  RH  064%=      5-min Rain = 0
KCO1 130408Z 12006KT 04/M02 A302 RMK A01 T00401022  RH  064%=      5-min Rain = 0
KCO1 130409Z 12006KT 04/M02 A302 RMK A01 T00401022  RH  064%=      5-min Rain = 0
KCO1 130410Z 12006KT 04/M02 A302 RMK A01 T00401022  RH  064%=      5-min Rain = 0
KCO1 130411Z 11006KT 04/M02 A3021 RMK A01 T00401022  RH  064%=      5-min Rain = 0
KCO1 130412Z 11006KT 04/M02 A3021 RMK A01 T00401022  RH  064%=      5-min Rain = 0
KCO1 130413Z 10004KT 04/M02 A3021 RMK A01 T00401022  RH  064%=      5-min Rain = 0
KCO1 130414Z 10004KT 04/M02 A3021 RMK A01 T00401022  RH  064%=      5-min Rain = 0
KCO1 130415Z 09004KT 04/M02 A3021 RMK A01 T00391023  RH  064%=      5-min Rain = 0
KCO1 130416Z 07003KT 04/M02 A3021 RMK A01 T00401022  RH  064%=      5-min Rain = 0
KCO1 130417Z 07004KT 04/M02 A3021 RMK A01 T00401022  RH  064%=      5-min Rain = 0
KCO1 130418Z 06004KT 04/M02 A3022 RMK A01 T00411022  RH  064%=      5-min Rain = 0
KCO1 130419Z 07005KT 04/M02 A3022 RMK A01 T00411022  RH  064%=      5-min Rain = 0
KCO1 130420Z 07006KT 04/M02 A3022 RMK A01 T00411022  RH  063%=      5-min Rain = 0
KCO1 130421Z 07005KT 04/M02 A3022 RMK A01 T00411023  RH  063%=      5-min Rain = 0
KCO1 130422Z 07005KT 04/M02 A3022 RMK A01 T00421023  RH  063%=      5-min Rain = 0
KCO1 130423Z 08005KT 04/M02 A3022 RMK A01 T00431023  RH  062%=      5-min Rain = 0
KCO1 130424Z 09005KT 04/M02 A3022 RMK A01 T00441023  RH  062%=      5-min Rain = 0
KCO1 130425Z 09005KT 04/M02 A3022 RMK A01 T00441024  RH  061%=      5-min Rain = 0
KCO1 130426Z 09005KT 05/M02 A3022 RMK A01 T00451024  RH  061%=      5-min Rain = 0
KCO1 130427Z 09005KT 05/M03 A3022 RMK A01 T00451025  RH  061%=      5-min Rain = 0
KCO1 130428Z 09005KT 04/M03 A3022 RMK A01 T00441025  RH  061%=      5-min Rain = 0
KCO1 130429Z 09005KT 04/M03 A3022 RMK A01 T00441025  RH  061%=      5-min Rain = 0
KCO1 130430Z 10005KT 04/M03 A3022 RMK A01 T00431025  RH  061%=      5-min Rain = 0
KCO1 130431Z 10005KT 04/M03 A3022 RMK A01 T00431025  RH  061%=      5-min Rain = 0
KCO1 130432Z 11005KT 04/M03 A3022 RMK A01 T00431025  RH  061%=      5-min Rain = 0
KCO1 130433Z 11005KT 04/M03 A3022 RMK A01 T00431026  RH  061%=      5-min Rain = 0
KCO1 130434Z 12004KT 04/M03 A3022 RMK A01 T00431027  RH  061%=      5-min Rain = 0
KCO1 130435Z 12004KT 04/M03 A3022 RMK A01 T00421027  RH  061%=      5-min Rain = 0
KCO1 130436Z 12004KT 04/M03 A3022 RMK A01 T00411028  RH  061%=      5-min Rain = 0
KCO1 130437Z 13005KT 04/M03 A3023 RMK A01 T00411028  RH  061%=      5-min Rain = 0
KCO1 130438Z 13005KT 04/M03 A3023 RMK A01 T00401028  RH  061%=      5-min Rain = 0
KCO1 130439Z 12005KT 04/M03 A3023 RMK A01 T00391028  RH  061%=      5-min Rain = 0
KCO1 130440Z 12005KT 04/M03 A3023 RMK A01 T00381028  RH  062%=      5-min Rain = 0
KCO1 130441Z 12005KT 04/M03 A3023 RMK A01 T00371029  RH  062%=      5-min Rain = 0
KCO1 130442Z 12004KT 04/M03 A3023 RMK A01 T00371029  RH  062%=      5-min Rain = 0
KCO1 130443Z 12004KT 04/M03 A3023 RMK A01 T00371029  RH  062%=      5-min Rain = 0
KCO1 130444Z 12004KT 04/M03 A3023 RMK A01 T00371028  RH  062%=      5-min Rain = 0
KCO1 130445Z 13004KT 04/M03 A3023 RMK A01 T00371028  RH  062%=      5-min Rain = 0
KCO1 130446Z 13005KT 04/M03 A3023 RMK A01 T00371028  RH  063%=      5-min Rain = 0
KCO1 130447Z 14005KT 04/M03 A3023 RMK A01 T00371028  RH  063%=      5-min Rain = 0
KCO1 130448Z 14006KT 04/M03 A3023 RMK A01 T00361028  RH  063%=      5-min Rain = 0
KCO1 130449Z 14006KT 04/M03 A3022 RMK A01 T00361029  RH  063%=      5-min Rain = 0
KCO1 130450Z 15007KT 03/M03 A3022 RMK A01 T00331030  RH  063%=      5-min Rain = 0
KCO1 130451Z 14007KT 03/M03 A3022 RMK A01 T00301030  RH  065%=      5-min Rain = 0
KCO1 130452Z 14008KT 03/M03 A3022 RMK A01 T00291029  RH  066%=      5-min Rain = 0
KCO1 130453Z 14008KT 03/M03 A3022 RMK A01 T00281029  RH  066%=      5-min Rain = 0
KCO1 130454Z 14007KT 03/M03 A3022 RMK A01 T00281028  RH  067%=      5-min Rain = 0
KCO1 130455Z 14007KT 03/M03 A3022 RMK A01 T00281028  RH  067%=      5-min Rain = 0
KCO1 130456Z 14008KT 03/M03 A3023 RMK A01 T00291027  RH  067%=      5-min Rain = 0
KCO1 130457Z 14008KT 03/M03 A3023 RMK A01 T00291026  RH  067%=      5-min Rain = 0
KCO1 130458Z 14008KT 03/M03 A3023 RMK A01 T00301025  RH  067%=      5-min Rain = 0
KCO1 130459Z 14008KT 03/M03 A3023 RMK A01 T00301025  RH  067%=      5-min Rain = 0
KCO1 130500Z 14009KT 03/M02 A3023 RMK A01 T00311024  RH  067%=      5-min Rain = 0
KCO1 130501Z 14009KT 03/M03 A3023 RMK A01 T00321025  RH  066%=      5-min Rain = 0
KCO1 130502Z 14009KT 03/M02 A3023 RMK A01 T00331024  RH  066%=      5-min Rain = 0
KCO1 130503Z 14009KT 03/M02 A3023 RMK A01 T00341024  RH  066%=      5-min Rain = 0
KCO1 130504Z 14009KT 04/M03 A3023 RMK A01 T00351025  RH  065%=      5-min Rain = 0
KCO1 130505Z 14009KT 04/M03 A3023 RMK A01 T00371025  RH  064%=      5-min Rain = 0
KCO1 130506Z 13008KT 04/M03 A3023 RMK A01 T00381025  RH  063%=      5-min Rain = 0
KCO1 130507Z 13009KT 04/M03 A3023 RMK A01 T00401025  RH  062%=      5-min Rain = 0
KCO1 130508Z 13008KT 04/M03 A3023 RMK A01 T00431026  RH  061%=      5-min Rain = 0
KCO1 130509Z 12007KT 04/M03 A3023 RMK A01 T00441026  RH  060%=      5-min Rain = 0
KCO1 130510Z 12007KT 05/M03 A3023 RMK A01 T00451027  RH  060%=      5-min Rain = 0
KCO1 130511Z 12007KT 05/M03 A3023 RMK A01 T00451027  RH  059%=      5-min Rain = 0
KCO1 130512Z 12007KT 05/M03 A3023 RMK A01 T00451028  RH  059%=      5-min Rain = 0
KCO1 130513Z 12007KT 05/M03 A3024 RMK A01 T00451028  RH  059%=      5-min Rain = 0
KCO1 130514Z 12006KT 04/M03 A3023 RMK A01 T00441029  RH  059%=      5-min Rain = 0
KCO1 130515Z 12006KT 04/M03 A3023 RMK A01 T00441029  RH  059%=      5-min Rain = 0
KCO1 130516Z 12006KT 04/M03 A3023 RMK A01 T00431030  RH  059%=      5-min Rain = 0
KCO1 130517Z 12005KT 04/M03 A3023 RMK A01 T00431030  RH  059%=      5-min Rain = 0
KCO1 130518Z 12006KT 04/M03 A3023 RMK A01 T00421030  RH  059%=      5-min Rain = 0
KCO1 130519Z 11005KT 04/M03 A3023 RMK A01 T00421030  RH  060%=      5-min Rain = 0
KCO1 130520Z 09005KT 04/M03 A3023 RMK A01 T00411030  RH  060%=      5-min Rain = 0
KCO1 130521Z 08005KT 04/M03 A3023 RMK A01 T00401030  RH  060%=      5-min Rain = 0
KCO1 130522Z 07006KT 04/M03 A3023 RMK A01 T00391030  RH  061%=      5-min Rain = 0
KCO1 130523Z 07005KT 04/M03 A3024 RMK A01 T00381030  RH  061%=      5-min Rain = 0
KCO1 130524Z 08005KT 04/M03 A3024 RMK A01 T00371030  RH  062%=      5-min Rain = 0
KCO1 130525Z 08005KT 04/M03 A3024 RMK A01 T00361030  RH  062%=      5-min Rain = 0
KCO1 130526Z 05006KT 04/M03 A3024 RMK A01 T00351030  RH  062%=      5-min Rain = 0
KCO1 130527Z 04008KT 03/M03 A3024 RMK A01 T00341029  RH  063%=      5-min Rain = 0
KCO1 130528Z 03009KT 03/M03 A3025 RMK A01 T00311030  RH  064%=      5-min Rain = 0
KCO1 130529Z 04010KT 03/M03 A3025 RMK A01 T00281030  RH  066%=      5-min Rain = 0
KCO1 130530Z 04010KT 03/M03 A3025 RMK A01 T00271029  RH  067%=      5-min Rain = 0
KCO1 130531Z 04008KT 03/M03 A3025 RMK A01 T00271030  RH  066%=      5-min Rain = 0
KCO1 130532Z 05007KT 03/M03 A3025 RMK A01 T00281030  RH  065%=      5-min Rain = 0
KCO1 130533Z 06006KT 03/M03 A3025 RMK A01 T00291032  RH  064%=      5-min Rain = 0
KCO1 130534Z 07006KT 03/M03 A3025 RMK A01 T00291034  RH  063%=      5-min Rain = 0
KCO1 130535Z 06006KT 03/M03 A3025 RMK A01 T00291034  RH  063%=      5-min Rain = 0
KCO1 130536Z 06006KT 03/M04 A3025 RMK A01 T00291035  RH  063%=      5-min Rain = 0
KCO1 130537Z 07006KT 03/M04 A3025 RMK A01 T00291035  RH  063%=      5-min Rain = 0
KCO1 130538Z 08006KT 03/M04 A3024 RMK A01 T00281036  RH  063%=      5-min Rain = 0
KCO1 130539Z 09005KT 03/M04 A3024 RMK A01 T00271036  RH  063%=      5-min Rain = 0
KCO1 130540Z 08006KT 03/M04 A3024 RMK A01 T00281035  RH  063%=      5-min Rain = 0
KCO1 130541Z 08006KT 03/M04 A3024 RMK A01 T00271035  RH  063%=      5-min Rain = 0
KCO1 130542Z 08005KT 03/M04 A3024 RMK A01 T00271036  RH  063%=      5-min Rain = 0
KCO1 130543Z 08005KT 03/M04 A3024 RMK A01 T00271035  RH  064%=      5-min Rain = 0
KCO1 130544Z 08005KT 03/M04 A3024 RMK A01 T00261036  RH  064%=      5-min Rain = 0
KCO1 130545Z 08005KT 03/M04 A3024 RMK A01 T00261035  RH  064%=      5-min Rain = 0
KCO1 130546Z 08006KT 03/M04 A3025 RMK A01 T00251036  RH  064%=      5-min Rain = 0
KCO1 130547Z 08006KT 03/M04 A3025 RMK A01 T00251036  RH  064%=      5-min Rain = 0
KCO1 130548Z 07007KT 03/M04 A3025 RMK A01 T00251036  RH  064%=      5-min Rain = 0
KCO1 130549Z 07007KT 03/M04 A3025 RMK A01 T00261035  RH  064%=      5-min Rain = 0
KCO1 130550Z 07007KT 03/M04 A3025 RMK A01 T00271035  RH  064%=      5-min Rain = 0
KCO1 130551Z 06007KT 03/M04 A3025 RMK A01 T00281035  RH  063%=      5-min Rain = 0
KCO1 130552Z 06007KT 03/M04 A3026 RMK A01 T00291036  RH  063%=      5-min Rain = 0
KCO1 130553Z 06007KT 03/M04 A3025 RMK A01 T00291037  RH  062%=      5-min Rain = 0
KCO1 130554Z 07006KT 03/M04 A3025 RMK A01 T00291037  RH  062%=      5-min Rain = 0
KCO1 130555Z 09004KT 03/M04 A3025 RMK A01 T00281038  RH  062%=      5-min Rain = 0
KCO1 130556Z 10005KT 03/M04 A3025 RMK A01 T00281038  RH  062%=      5-min Rain = 0
KCO1 130557Z 11004KT 03/M04 A3025 RMK A01 T00281038  RH  062%=      5-min Rain = 0
KCO1 130558Z 11004KT 03/M04 A3025 RMK A01 T00281038  RH  062%=      5-min Rain = 0
KCO1 130559Z 10004KT 03/M04 A3025 RMK A01 T00271038  RH  062%=      5-min Rain = 0

Page generated in 0.1305 seconds.